<?xml version="1.0" encoding="UTF-8" standalone="no" ?>
<gpx xmlns="http://www.topografix.com/GPX/1/1" xmlns:xsi="http://www.w3.org/2001/XMLSchema-instance" xsi:schemaLocation="http://www.topografix.com/GPX/1/1 http://www.topografix.com/GPX/1/1/gpx.xsd" version="1.1" creator="VisuGPX - https://www.visugpx.com">
  <metadata>
    <name>SEMI 2025 Monéteau</name>
    <desc><![CDATA[Parcours semi marathon Monéteau 2025]]></desc>
  </metadata>
  <wpt lat="47.8486" lon="3.57883">
    <ele>93.6</ele>
    <name><![CDATA[SEMI 04-2025  alternative 3 3]]></name>
    <type><![CDATA[Generic]]></type>
  </wpt>
  <trk>
    <name><![CDATA[SEMI 04-2025  alternative 3 3]]></name>
    <trkseg>
      <trkpt lat="47.8486" lon="3.57883">
        <ele>93.5</ele>
        <time>2025-02-26T10:58:26Z</time>
      </trkpt>
      <trkpt lat="47.84896" lon="3.57872">
        <ele>93.6</ele>
        <time>2025-02-26T10:58:38Z</time>
      </trkpt>
      <trkpt lat="47.84899" lon="3.57872">
        <ele>93.7</ele>
        <time>2025-02-26T10:58:43Z</time>
      </trkpt>
      <trkpt lat="47.84901" lon="3.57871">
        <ele>93.8</ele>
        <time>2025-02-26T10:59:02Z</time>
      </trkpt>
      <trkpt lat="47.84904" lon="3.57871">
        <ele>93.9</ele>
        <time>2025-02-26T10:59:09Z</time>
      </trkpt>
      <trkpt lat="47.84907" lon="3.5787">
        <ele>94</ele>
        <time>2025-02-26T10:59:11Z</time>
      </trkpt>
      <trkpt lat="47.84909" lon="3.57869">
        <ele>94</ele>
        <time>2025-02-26T10:59:30Z</time>
      </trkpt>
      <trkpt lat="47.84913" lon="3.57869">
        <ele>94.2</ele>
        <time>2025-02-26T10:59:42Z</time>
      </trkpt>
      <trkpt lat="47.84914" lon="3.57869">
        <ele>94.2</ele>
        <time>2025-02-26T10:59:51Z</time>
      </trkpt>
      <trkpt lat="47.84917" lon="3.57868">
        <ele>94.2</ele>
        <time>2025-02-26T11:00:03Z</time>
      </trkpt>
      <trkpt lat="47.84919" lon="3.57868">
        <ele>94.2</ele>
        <time>2025-02-26T11:00:19Z</time>
      </trkpt>
      <trkpt lat="47.84939" lon="3.57865">
        <ele>94.1</ele>
        <time>2025-02-26T11:00:24Z</time>
      </trkpt>
      <trkpt lat="47.84951" lon="3.57864">
        <ele>94.3</ele>
        <time>2025-02-26T11:00:34Z</time>
      </trkpt>
      <trkpt lat="47.84966" lon="3.57865">
        <ele>94.9</ele>
        <time>2025-02-26T11:00:52Z</time>
      </trkpt>
      <trkpt lat="47.84971" lon="3.57863">
        <ele>95</ele>
        <time>2025-02-26T11:01:10Z</time>
      </trkpt>
      <trkpt lat="47.84992" lon="3.57861">
        <ele>95</ele>
        <time>2025-02-26T11:01:18Z</time>
      </trkpt>
      <trkpt lat="47.84984" lon="3.57818">
        <ele>94.8</ele>
        <time>2025-02-26T11:01:21Z</time>
      </trkpt>
      <trkpt lat="47.84981" lon="3.57802">
        <ele>94.3</ele>
        <time>2025-02-26T11:01:26Z</time>
      </trkpt>
      <trkpt lat="47.84977" lon="3.57789">
        <ele>92.7</ele>
        <time>2025-02-26T11:01:37Z</time>
      </trkpt>
      <trkpt lat="47.84969" lon="3.57764">
        <ele>90.9</ele>
        <time>2025-02-26T11:01:41Z</time>
      </trkpt>
      <trkpt lat="47.84957" lon="3.57724">
        <ele>90</ele>
        <time>2025-02-26T11:01:56Z</time>
      </trkpt>
      <trkpt lat="47.8495" lon="3.57701">
        <ele>91.3</ele>
        <time>2025-02-26T11:02:16Z</time>
      </trkpt>
      <trkpt lat="47.84941" lon="3.57675">
        <ele>93.9</ele>
        <time>2025-02-26T11:02:32Z</time>
      </trkpt>
      <trkpt lat="47.84928" lon="3.57646">
        <ele>94.2</ele>
        <time>2025-02-26T11:02:36Z</time>
      </trkpt>
      <trkpt lat="47.84913" lon="3.57623">
        <ele>94.3</ele>
        <time>2025-02-26T11:02:48Z</time>
      </trkpt>
      <trkpt lat="47.84907" lon="3.57604">
        <ele>93.8</ele>
        <time>2025-02-26T11:02:58Z</time>
      </trkpt>
      <trkpt lat="47.84896" lon="3.57592">
        <ele>93.8</ele>
        <time>2025-02-26T11:03:02Z</time>
      </trkpt>
      <trkpt lat="47.84888" lon="3.5758">
        <ele>94</ele>
        <time>2025-02-26T11:03:06Z</time>
      </trkpt>
      <trkpt lat="47.84894" lon="3.57576">
        <ele>93.9</ele>
        <time>2025-02-26T11:03:11Z</time>
      </trkpt>
      <trkpt lat="47.84902" lon="3.57566">
        <ele>93.8</ele>
        <time>2025-02-26T11:03:21Z</time>
      </trkpt>
      <trkpt lat="47.84913" lon="3.57539">
        <ele>94</ele>
        <time>2025-02-26T11:03:28Z</time>
      </trkpt>
      <trkpt lat="47.84916" lon="3.57535">
        <ele>94</ele>
        <time>2025-02-26T11:03:38Z</time>
      </trkpt>
      <trkpt lat="47.84927" lon="3.57527">
        <ele>93.6</ele>
        <time>2025-02-26T11:03:56Z</time>
      </trkpt>
      <trkpt lat="47.84966" lon="3.57505">
        <ele>93</ele>
        <time>2025-02-26T11:04:16Z</time>
      </trkpt>
      <trkpt lat="47.84989" lon="3.57491">
        <ele>93</ele>
        <time>2025-02-26T11:04:31Z</time>
      </trkpt>
      <trkpt lat="47.85007" lon="3.57482">
        <ele>93</ele>
        <time>2025-02-26T11:04:40Z</time>
      </trkpt>
      <trkpt lat="47.85025" lon="3.57472">
        <ele>93</ele>
        <time>2025-02-26T11:04:50Z</time>
      </trkpt>
      <trkpt lat="47.85028" lon="3.57471">
        <ele>93</ele>
        <time>2025-02-26T11:05:07Z</time>
      </trkpt>
      <trkpt lat="47.85034" lon="3.57468">
        <ele>93</ele>
        <time>2025-02-26T11:05:27Z</time>
      </trkpt>
      <trkpt lat="47.85033" lon="3.57462">
        <ele>93</ele>
        <time>2025-02-26T11:05:39Z</time>
      </trkpt>
      <trkpt lat="47.85029" lon="3.57444">
        <ele>93</ele>
        <time>2025-02-26T11:05:53Z</time>
      </trkpt>
      <trkpt lat="47.85022" lon="3.57416">
        <ele>93</ele>
        <time>2025-02-26T11:05:55Z</time>
      </trkpt>
      <trkpt lat="47.85014" lon="3.57392">
        <ele>93</ele>
        <time>2025-02-26T11:06:10Z</time>
      </trkpt>
      <trkpt lat="47.85006" lon="3.57367">
        <ele>93</ele>
        <time>2025-02-26T11:06:19Z</time>
      </trkpt>
      <trkpt lat="47.84995" lon="3.57329">
        <ele>93</ele>
        <time>2025-02-26T11:06:38Z</time>
      </trkpt>
      <trkpt lat="47.84986" lon="3.57303">
        <ele>93</ele>
        <time>2025-02-26T11:06:40Z</time>
      </trkpt>
      <trkpt lat="47.84983" lon="3.57291">
        <ele>93</ele>
        <time>2025-02-26T11:06:52Z</time>
      </trkpt>
      <trkpt lat="47.84982" lon="3.57286">
        <ele>93</ele>
        <time>2025-02-26T11:07:08Z</time>
      </trkpt>
      <trkpt lat="47.84976" lon="3.57258">
        <ele>93</ele>
        <time>2025-02-26T11:07:13Z</time>
      </trkpt>
      <trkpt lat="47.84975" lon="3.57254">
        <ele>93</ele>
        <time>2025-02-26T11:07:31Z</time>
      </trkpt>
      <trkpt lat="47.84975" lon="3.57252">
        <ele>93</ele>
        <time>2025-02-26T11:07:46Z</time>
      </trkpt>
      <trkpt lat="47.84976" lon="3.57228">
        <ele>92.9</ele>
        <time>2025-02-26T11:08:06Z</time>
      </trkpt>
      <trkpt lat="47.84974" lon="3.57223">
        <ele>92.9</ele>
        <time>2025-02-26T11:08:11Z</time>
      </trkpt>
      <trkpt lat="47.84969" lon="3.57216">
        <ele>93</ele>
        <time>2025-02-26T11:08:16Z</time>
      </trkpt>
      <trkpt lat="47.84965" lon="3.5721">
        <ele>93</ele>
        <time>2025-02-26T11:08:25Z</time>
      </trkpt>
      <trkpt lat="47.84958" lon="3.57209">
        <ele>93</ele>
        <time>2025-02-26T11:08:40Z</time>
      </trkpt>
      <trkpt lat="47.8495" lon="3.57207">
        <ele>93</ele>
        <time>2025-02-26T11:08:49Z</time>
      </trkpt>
      <trkpt lat="47.84936" lon="3.57206">
        <ele>93</ele>
        <time>2025-02-26T11:08:57Z</time>
      </trkpt>
      <trkpt lat="47.84919" lon="3.57204">
        <ele>93</ele>
        <time>2025-02-26T11:09:06Z</time>
      </trkpt>
      <trkpt lat="47.84909" lon="3.57202">
        <ele>93</ele>
        <time>2025-02-26T11:09:24Z</time>
      </trkpt>
      <trkpt lat="47.84907" lon="3.572">
        <ele>93</ele>
        <time>2025-02-26T11:09:38Z</time>
      </trkpt>
      <trkpt lat="47.84898" lon="3.57198">
        <ele>93</ele>
        <time>2025-02-26T11:09:53Z</time>
      </trkpt>
      <trkpt lat="47.84897" lon="3.57198">
        <ele>93</ele>
        <time>2025-02-26T11:10:08Z</time>
      </trkpt>
      <trkpt lat="47.84876" lon="3.57198">
        <ele>93</ele>
        <time>2025-02-26T11:10:17Z</time>
      </trkpt>
      <trkpt lat="47.84862" lon="3.57199">
        <ele>93</ele>
        <time>2025-02-26T11:10:30Z</time>
      </trkpt>
      <trkpt lat="47.84856" lon="3.57202">
        <ele>93</ele>
        <time>2025-02-26T11:10:42Z</time>
      </trkpt>
      <trkpt lat="47.8485" lon="3.57205">
        <ele>93</ele>
        <time>2025-02-26T11:11:00Z</time>
      </trkpt>
      <trkpt lat="47.84837" lon="3.5721">
        <ele>93</ele>
        <time>2025-02-26T11:11:10Z</time>
      </trkpt>
      <trkpt lat="47.84825" lon="3.57212">
        <ele>93.2</ele>
        <time>2025-02-26T11:11:14Z</time>
      </trkpt>
      <trkpt lat="47.84811" lon="3.57217">
        <ele>93.7</ele>
        <time>2025-02-26T11:11:26Z</time>
      </trkpt>
      <trkpt lat="47.84793" lon="3.57228">
        <ele>93.4</ele>
        <time>2025-02-26T11:11:34Z</time>
      </trkpt>
      <trkpt lat="47.84788" lon="3.57199">
        <ele>93.1</ele>
        <time>2025-02-26T11:11:49Z</time>
      </trkpt>
      <trkpt lat="47.84781" lon="3.57167">
        <ele>93</ele>
        <time>2025-02-26T11:11:54Z</time>
      </trkpt>
      <trkpt lat="47.84774" lon="3.57138">
        <ele>92.9</ele>
        <time>2025-02-26T11:12:05Z</time>
      </trkpt>
      <trkpt lat="47.84768" lon="3.57113">
        <ele>93</ele>
        <time>2025-02-26T11:12:07Z</time>
      </trkpt>
      <trkpt lat="47.84764" lon="3.57096">
        <ele>93.3</ele>
        <time>2025-02-26T11:12:14Z</time>
      </trkpt>
      <trkpt lat="47.84755" lon="3.57066">
        <ele>93.7</ele>
        <time>2025-02-26T11:12:17Z</time>
      </trkpt>
      <trkpt lat="47.84737" lon="3.57021">
        <ele>93.7</ele>
        <time>2025-02-26T11:12:35Z</time>
      </trkpt>
      <trkpt lat="47.84732" lon="3.57007">
        <ele>93.8</ele>
        <time>2025-02-26T11:12:51Z</time>
      </trkpt>
      <trkpt lat="47.84741" lon="3.57005">
        <ele>93.9</ele>
        <time>2025-02-26T11:12:54Z</time>
      </trkpt>
      <trkpt lat="47.84742" lon="3.57001">
        <ele>94</ele>
        <time>2025-02-26T11:12:57Z</time>
      </trkpt>
      <trkpt lat="47.84743" lon="3.56998">
        <ele>94</ele>
        <time>2025-02-26T11:13:08Z</time>
      </trkpt>
      <trkpt lat="47.84744" lon="3.56994">
        <ele>94</ele>
        <time>2025-02-26T11:13:20Z</time>
      </trkpt>
      <trkpt lat="47.84742" lon="3.56991">
        <ele>94</ele>
        <time>2025-02-26T11:13:22Z</time>
      </trkpt>
      <trkpt lat="47.84738" lon="3.56984">
        <ele>94</ele>
        <time>2025-02-26T11:13:40Z</time>
      </trkpt>
      <trkpt lat="47.84745" lon="3.5697">
        <ele>94</ele>
        <time>2025-02-26T11:13:43Z</time>
      </trkpt>
      <trkpt lat="47.84757" lon="3.56942">
        <ele>94</ele>
        <time>2025-02-26T11:13:59Z</time>
      </trkpt>
      <trkpt lat="47.84762" lon="3.56928">
        <ele>94</ele>
        <time>2025-02-26T11:14:01Z</time>
      </trkpt>
      <trkpt lat="47.84774" lon="3.56896">
        <ele>94</ele>
        <time>2025-02-26T11:14:04Z</time>
      </trkpt>
      <trkpt lat="47.84778" lon="3.56881">
        <ele>94</ele>
        <time>2025-02-26T11:14:17Z</time>
      </trkpt>
      <trkpt lat="47.84783" lon="3.56859">
        <ele>93.9</ele>
        <time>2025-02-26T11:14:34Z</time>
      </trkpt>
      <trkpt lat="47.84791" lon="3.56818">
        <ele>93.8</ele>
        <time>2025-02-26T11:14:48Z</time>
      </trkpt>
      <trkpt lat="47.84797" lon="3.56781">
        <ele>94</ele>
        <time>2025-02-26T11:15:02Z</time>
      </trkpt>
      <trkpt lat="47.84802" lon="3.56748">
        <ele>94</ele>
        <time>2025-02-26T11:15:22Z</time>
      </trkpt>
      <trkpt lat="47.8481" lon="3.56698">
        <ele>93.8</ele>
        <time>2025-02-26T11:15:27Z</time>
      </trkpt>
      <trkpt lat="47.84818" lon="3.5665">
        <ele>93.4</ele>
        <time>2025-02-26T11:15:38Z</time>
      </trkpt>
      <trkpt lat="47.84828" lon="3.56581">
        <ele>93</ele>
        <time>2025-02-26T11:15:56Z</time>
      </trkpt>
      <trkpt lat="47.84835" lon="3.5654">
        <ele>93</ele>
        <time>2025-02-26T11:16:11Z</time>
      </trkpt>
      <trkpt lat="47.84844" lon="3.5649">
        <ele>92.9</ele>
        <time>2025-02-26T11:16:29Z</time>
      </trkpt>
      <trkpt lat="47.84851" lon="3.56454">
        <ele>92.8</ele>
        <time>2025-02-26T11:16:37Z</time>
      </trkpt>
      <trkpt lat="47.84861" lon="3.56397">
        <ele>93</ele>
        <time>2025-02-26T11:16:42Z</time>
      </trkpt>
      <trkpt lat="47.84863" lon="3.56384">
        <ele>92.9</ele>
        <time>2025-02-26T11:16:54Z</time>
      </trkpt>
      <trkpt lat="47.84867" lon="3.56363">
        <ele>92.8</ele>
        <time>2025-02-26T11:16:58Z</time>
      </trkpt>
      <trkpt lat="47.84875" lon="3.56317">
        <ele>90.5</ele>
        <time>2025-02-26T11:17:09Z</time>
      </trkpt>
      <trkpt lat="47.8488" lon="3.56285">
        <ele>91.3</ele>
        <time>2025-02-26T11:17:14Z</time>
      </trkpt>
      <trkpt lat="47.84881" lon="3.56279">
        <ele>91.6</ele>
        <time>2025-02-26T11:17:17Z</time>
      </trkpt>
      <trkpt lat="47.84887" lon="3.56231">
        <ele>93.6</ele>
        <time>2025-02-26T11:17:22Z</time>
      </trkpt>
      <trkpt lat="47.8489" lon="3.56206">
        <ele>94</ele>
        <time>2025-02-26T11:17:39Z</time>
      </trkpt>
      <trkpt lat="47.84893" lon="3.56178">
        <ele>94</ele>
        <time>2025-02-26T11:17:54Z</time>
      </trkpt>
      <trkpt lat="47.84895" lon="3.56146">
        <ele>94.7</ele>
        <time>2025-02-26T11:18:12Z</time>
      </trkpt>
      <trkpt lat="47.84896" lon="3.56121">
        <ele>95.6</ele>
        <time>2025-02-26T11:18:20Z</time>
      </trkpt>
      <trkpt lat="47.84896" lon="3.56115">
        <ele>95.9</ele>
        <time>2025-02-26T11:18:26Z</time>
      </trkpt>
      <trkpt lat="47.84897" lon="3.56108">
        <ele>96</ele>
        <time>2025-02-26T11:18:37Z</time>
      </trkpt>
      <trkpt lat="47.84898" lon="3.56097">
        <ele>96</ele>
        <time>2025-02-26T11:18:47Z</time>
      </trkpt>
      <trkpt lat="47.84902" lon="3.5608">
        <ele>96.1</ele>
        <time>2025-02-26T11:18:57Z</time>
      </trkpt>
      <trkpt lat="47.84904" lon="3.56075">
        <ele>96.3</ele>
        <time>2025-02-26T11:19:09Z</time>
      </trkpt>
      <trkpt lat="47.84908" lon="3.56066">
        <ele>96.6</ele>
        <time>2025-02-26T11:19:24Z</time>
      </trkpt>
      <trkpt lat="47.8491" lon="3.5606">
        <ele>96.8</ele>
        <time>2025-02-26T11:19:42Z</time>
      </trkpt>
      <trkpt lat="47.84912" lon="3.56055">
        <ele>97</ele>
        <time>2025-02-26T11:19:52Z</time>
      </trkpt>
      <trkpt lat="47.84913" lon="3.56052">
        <ele>97</ele>
        <time>2025-02-26T11:20:10Z</time>
      </trkpt>
      <trkpt lat="47.84914" lon="3.56045">
        <ele>97</ele>
        <time>2025-02-26T11:20:21Z</time>
      </trkpt>
      <trkpt lat="47.84924" lon="3.56011">
        <ele>97.5</ele>
        <time>2025-02-26T11:20:29Z</time>
      </trkpt>
      <trkpt lat="47.84933" lon="3.55982">
        <ele>97.8</ele>
        <time>2025-02-26T11:20:32Z</time>
      </trkpt>
      <trkpt lat="47.84938" lon="3.55964">
        <ele>98</ele>
        <time>2025-02-26T11:20:45Z</time>
      </trkpt>
      <trkpt lat="47.84951" lon="3.55933">
        <ele>98</ele>
        <time>2025-02-26T11:20:53Z</time>
      </trkpt>
      <trkpt lat="47.84962" lon="3.55906">
        <ele>98</ele>
        <time>2025-02-26T11:21:10Z</time>
      </trkpt>
      <trkpt lat="47.84978" lon="3.55866">
        <ele>98</ele>
        <time>2025-02-26T11:21:12Z</time>
      </trkpt>
      <trkpt lat="47.8498" lon="3.55862">
        <ele>98</ele>
        <time>2025-02-26T11:21:27Z</time>
      </trkpt>
      <trkpt lat="47.84987" lon="3.55848">
        <ele>98</ele>
        <time>2025-02-26T11:21:46Z</time>
      </trkpt>
      <trkpt lat="47.84991" lon="3.55835">
        <ele>98</ele>
        <time>2025-02-26T11:21:48Z</time>
      </trkpt>
      <trkpt lat="47.85002" lon="3.55808">
        <ele>98</ele>
        <time>2025-02-26T11:22:01Z</time>
      </trkpt>
      <trkpt lat="47.85013" lon="3.55783">
        <ele>98</ele>
        <time>2025-02-26T11:22:14Z</time>
      </trkpt>
      <trkpt lat="47.85016" lon="3.55775">
        <ele>98</ele>
        <time>2025-02-26T11:22:16Z</time>
      </trkpt>
      <trkpt lat="47.85011" lon="3.55771">
        <ele>98</ele>
        <time>2025-02-26T11:22:18Z</time>
      </trkpt>
      <trkpt lat="47.84997" lon="3.55759">
        <ele>98.1</ele>
        <time>2025-02-26T11:22:36Z</time>
      </trkpt>
      <trkpt lat="47.84987" lon="3.55749">
        <ele>98.5</ele>
        <time>2025-02-26T11:22:45Z</time>
      </trkpt>
      <trkpt lat="47.84976" lon="3.55733">
        <ele>98.9</ele>
        <time>2025-02-26T11:23:00Z</time>
      </trkpt>
      <trkpt lat="47.84972" lon="3.55727">
        <ele>99</ele>
        <time>2025-02-26T11:23:13Z</time>
      </trkpt>
      <trkpt lat="47.84969" lon="3.55721">
        <ele>99.1</ele>
        <time>2025-02-26T11:23:16Z</time>
      </trkpt>
      <trkpt lat="47.84954" lon="3.55691">
        <ele>99.6</ele>
        <time>2025-02-26T11:23:20Z</time>
      </trkpt>
      <trkpt lat="47.84938" lon="3.5566">
        <ele>98.8</ele>
        <time>2025-02-26T11:23:23Z</time>
      </trkpt>
      <trkpt lat="47.84929" lon="3.55643">
        <ele>98.6</ele>
        <time>2025-02-26T11:23:36Z</time>
      </trkpt>
      <trkpt lat="47.84914" lon="3.55616">
        <ele>99</ele>
        <time>2025-02-26T11:23:38Z</time>
      </trkpt>
      <trkpt lat="47.84901" lon="3.5559">
        <ele>99</ele>
        <time>2025-02-26T11:23:56Z</time>
      </trkpt>
      <trkpt lat="47.84888" lon="3.55566">
        <ele>98.4</ele>
        <time>2025-02-26T11:24:16Z</time>
      </trkpt>
      <trkpt lat="47.84877" lon="3.55581">
        <ele>99</ele>
        <time>2025-02-26T11:24:34Z</time>
      </trkpt>
      <trkpt lat="47.84854" lon="3.55615">
        <ele>99</ele>
        <time>2025-02-26T11:24:52Z</time>
      </trkpt>
      <trkpt lat="47.84834" lon="3.55644">
        <ele>99</ele>
        <time>2025-02-26T11:24:57Z</time>
      </trkpt>
      <trkpt lat="47.8482" lon="3.55662">
        <ele>99</ele>
        <time>2025-02-26T11:25:04Z</time>
      </trkpt>
      <trkpt lat="47.84807" lon="3.55677">
        <ele>99</ele>
        <time>2025-02-26T11:25:09Z</time>
      </trkpt>
      <trkpt lat="47.84789" lon="3.55698">
        <ele>99</ele>
        <time>2025-02-26T11:25:28Z</time>
      </trkpt>
      <trkpt lat="47.84771" lon="3.55719">
        <ele>99</ele>
        <time>2025-02-26T11:25:41Z</time>
      </trkpt>
      <trkpt lat="47.84747" lon="3.55746">
        <ele>99</ele>
        <time>2025-02-26T11:25:47Z</time>
      </trkpt>
      <trkpt lat="47.84739" lon="3.55755">
        <ele>98.9</ele>
        <time>2025-02-26T11:25:53Z</time>
      </trkpt>
      <trkpt lat="47.84753" lon="3.55781">
        <ele>99</ele>
        <time>2025-02-26T11:26:08Z</time>
      </trkpt>
      <trkpt lat="47.84766" lon="3.55804">
        <ele>99</ele>
        <time>2025-02-26T11:26:10Z</time>
      </trkpt>
      <trkpt lat="47.84779" lon="3.55828">
        <ele>99</ele>
        <time>2025-02-26T11:26:15Z</time>
      </trkpt>
      <trkpt lat="47.84793" lon="3.55855">
        <ele>99</ele>
        <time>2025-02-26T11:26:24Z</time>
      </trkpt>
      <trkpt lat="47.84801" lon="3.5587">
        <ele>99</ele>
        <time>2025-02-26T11:26:39Z</time>
      </trkpt>
      <trkpt lat="47.84807" lon="3.55881">
        <ele>98.9</ele>
        <time>2025-02-26T11:26:52Z</time>
      </trkpt>
      <trkpt lat="47.8482" lon="3.55906">
        <ele>98.5</ele>
        <time>2025-02-26T11:27:07Z</time>
      </trkpt>
      <trkpt lat="47.84832" lon="3.5593">
        <ele>98</ele>
        <time>2025-02-26T11:27:16Z</time>
      </trkpt>
      <trkpt lat="47.84843" lon="3.55952">
        <ele>98</ele>
        <time>2025-02-26T11:27:31Z</time>
      </trkpt>
      <trkpt lat="47.84854" lon="3.55973">
        <ele>98</ele>
        <time>2025-02-26T11:27:40Z</time>
      </trkpt>
      <trkpt lat="47.84859" lon="3.55983">
        <ele>98</ele>
        <time>2025-02-26T11:27:44Z</time>
      </trkpt>
      <trkpt lat="47.84867" lon="3.56001">
        <ele>98</ele>
        <time>2025-02-26T11:28:03Z</time>
      </trkpt>
      <trkpt lat="47.84879" lon="3.56032">
        <ele>97.3</ele>
        <time>2025-02-26T11:28:23Z</time>
      </trkpt>
      <trkpt lat="47.84882" lon="3.5604">
        <ele>97.1</ele>
        <time>2025-02-26T11:28:35Z</time>
      </trkpt>
      <trkpt lat="47.84886" lon="3.56058">
        <ele>96.9</ele>
        <time>2025-02-26T11:28:47Z</time>
      </trkpt>
      <trkpt lat="47.84889" lon="3.56076">
        <ele>96.3</ele>
        <time>2025-02-26T11:29:05Z</time>
      </trkpt>
      <trkpt lat="47.8489" lon="3.5609">
        <ele>96</ele>
        <time>2025-02-26T11:29:13Z</time>
      </trkpt>
      <trkpt lat="47.84893" lon="3.56103">
        <ele>96</ele>
        <time>2025-02-26T11:29:33Z</time>
      </trkpt>
      <trkpt lat="47.84892" lon="3.56119">
        <ele>95.7</ele>
        <time>2025-02-26T11:29:52Z</time>
      </trkpt>
      <trkpt lat="47.84893" lon="3.56133">
        <ele>95.2</ele>
        <time>2025-02-26T11:30:11Z</time>
      </trkpt>
      <trkpt lat="47.84893" lon="3.56146">
        <ele>94.7</ele>
        <time>2025-02-26T11:30:25Z</time>
      </trkpt>
      <trkpt lat="47.84891" lon="3.56178">
        <ele>94</ele>
        <time>2025-02-26T11:30:35Z</time>
      </trkpt>
      <trkpt lat="47.84888" lon="3.56206">
        <ele>94</ele>
        <time>2025-02-26T11:30:49Z</time>
      </trkpt>
      <trkpt lat="47.84885" lon="3.5623">
        <ele>93.6</ele>
        <time>2025-02-26T11:31:01Z</time>
      </trkpt>
      <trkpt lat="47.84879" lon="3.56279">
        <ele>91.6</ele>
        <time>2025-02-26T11:31:08Z</time>
      </trkpt>
      <trkpt lat="47.84878" lon="3.56284">
        <ele>91.3</ele>
        <time>2025-02-26T11:31:28Z</time>
      </trkpt>
      <trkpt lat="47.84873" lon="3.56316">
        <ele>90.5</ele>
        <time>2025-02-26T11:31:45Z</time>
      </trkpt>
      <trkpt lat="47.84865" lon="3.56362">
        <ele>92.9</ele>
        <time>2025-02-26T11:31:55Z</time>
      </trkpt>
      <trkpt lat="47.84861" lon="3.56383">
        <ele>93</ele>
        <time>2025-02-26T11:32:00Z</time>
      </trkpt>
      <trkpt lat="47.8486" lon="3.56389">
        <ele>93</ele>
        <time>2025-02-26T11:32:09Z</time>
      </trkpt>
      <trkpt lat="47.84859" lon="3.56396">
        <ele>93</ele>
        <time>2025-02-26T11:32:27Z</time>
      </trkpt>
      <trkpt lat="47.84856" lon="3.56416">
        <ele>93</ele>
        <time>2025-02-26T11:32:33Z</time>
      </trkpt>
      <trkpt lat="47.84849" lon="3.56455">
        <ele>92.8</ele>
        <time>2025-02-26T11:32:43Z</time>
      </trkpt>
      <trkpt lat="47.8484" lon="3.5645">
        <ele>93</ele>
        <time>2025-02-26T11:32:51Z</time>
      </trkpt>
      <trkpt lat="47.84838" lon="3.56449">
        <ele>93</ele>
        <time>2025-02-26T11:32:58Z</time>
      </trkpt>
      <trkpt lat="47.84812" lon="3.56432">
        <ele>93</ele>
        <time>2025-02-26T11:33:16Z</time>
      </trkpt>
      <trkpt lat="47.84794" lon="3.5642">
        <ele>93</ele>
        <time>2025-02-26T11:33:31Z</time>
      </trkpt>
      <trkpt lat="47.84784" lon="3.56413">
        <ele>93</ele>
        <time>2025-02-26T11:33:49Z</time>
      </trkpt>
      <trkpt lat="47.84765" lon="3.56399">
        <ele>93.5</ele>
        <time>2025-02-26T11:34:05Z</time>
      </trkpt>
      <trkpt lat="47.84746" lon="3.56386">
        <ele>93.8</ele>
        <time>2025-02-26T11:34:11Z</time>
      </trkpt>
      <trkpt lat="47.84724" lon="3.5637">
        <ele>93</ele>
        <time>2025-02-26T11:34:22Z</time>
      </trkpt>
      <trkpt lat="47.84711" lon="3.56359">
        <ele>93</ele>
        <time>2025-02-26T11:34:41Z</time>
      </trkpt>
      <trkpt lat="47.84693" lon="3.56341">
        <ele>93</ele>
        <time>2025-02-26T11:34:43Z</time>
      </trkpt>
      <trkpt lat="47.84682" lon="3.56327">
        <ele>93.4</ele>
        <time>2025-02-26T11:35:02Z</time>
      </trkpt>
      <trkpt lat="47.84661" lon="3.56301">
        <ele>93.9</ele>
        <time>2025-02-26T11:35:11Z</time>
      </trkpt>
      <trkpt lat="47.84658" lon="3.56298">
        <ele>93.8</ele>
        <time>2025-02-26T11:35:22Z</time>
      </trkpt>
      <trkpt lat="47.8464" lon="3.5627">
        <ele>94</ele>
        <time>2025-02-26T11:35:30Z</time>
      </trkpt>
      <trkpt lat="47.84622" lon="3.56238">
        <ele>94.9</ele>
        <time>2025-02-26T11:35:40Z</time>
      </trkpt>
      <trkpt lat="47.84618" lon="3.56231">
        <ele>95</ele>
        <time>2025-02-26T11:35:46Z</time>
      </trkpt>
      <trkpt lat="47.84601" lon="3.56187">
        <ele>95.2</ele>
        <time>2025-02-26T11:35:56Z</time>
      </trkpt>
      <trkpt lat="47.846" lon="3.56185">
        <ele>95.2</ele>
        <time>2025-02-26T11:36:06Z</time>
      </trkpt>
      <trkpt lat="47.84597" lon="3.56182">
        <ele>95.3</ele>
        <time>2025-02-26T11:36:16Z</time>
      </trkpt>
      <trkpt lat="47.84595" lon="3.56181">
        <ele>95.4</ele>
        <time>2025-02-26T11:36:34Z</time>
      </trkpt>
      <trkpt lat="47.8459" lon="3.56181">
        <ele>95.6</ele>
        <time>2025-02-26T11:36:40Z</time>
      </trkpt>
      <trkpt lat="47.84579" lon="3.56196">
        <ele>96.2</ele>
        <time>2025-02-26T11:37:00Z</time>
      </trkpt>
      <trkpt lat="47.8457" lon="3.56205">
        <ele>96.5</ele>
        <time>2025-02-26T11:37:08Z</time>
      </trkpt>
      <trkpt lat="47.84562" lon="3.56212">
        <ele>96.8</ele>
        <time>2025-02-26T11:37:20Z</time>
      </trkpt>
      <trkpt lat="47.84544" lon="3.56235">
        <ele>97</ele>
        <time>2025-02-26T11:37:22Z</time>
      </trkpt>
      <trkpt lat="47.84542" lon="3.56238">
        <ele>97</ele>
        <time>2025-02-26T11:37:27Z</time>
      </trkpt>
      <trkpt lat="47.84525" lon="3.56255">
        <ele>97.2</ele>
        <time>2025-02-26T11:37:36Z</time>
      </trkpt>
      <trkpt lat="47.84501" lon="3.56276">
        <ele>97</ele>
        <time>2025-02-26T11:37:43Z</time>
      </trkpt>
      <trkpt lat="47.84496" lon="3.56281">
        <ele>97.2</ele>
        <time>2025-02-26T11:37:47Z</time>
      </trkpt>
      <trkpt lat="47.84469" lon="3.563">
        <ele>98.1</ele>
        <time>2025-02-26T11:37:58Z</time>
      </trkpt>
      <trkpt lat="47.84462" lon="3.56305">
        <ele>98.4</ele>
        <time>2025-02-26T11:38:02Z</time>
      </trkpt>
      <trkpt lat="47.84457" lon="3.56311">
        <ele>98.5</ele>
        <time>2025-02-26T11:38:11Z</time>
      </trkpt>
      <trkpt lat="47.84448" lon="3.56321">
        <ele>98.9</ele>
        <time>2025-02-26T11:38:22Z</time>
      </trkpt>
      <trkpt lat="47.84454" lon="3.56329">
        <ele>98.7</ele>
        <time>2025-02-26T11:38:30Z</time>
      </trkpt>
      <trkpt lat="47.84456" lon="3.56336">
        <ele>98.6</ele>
        <time>2025-02-26T11:38:44Z</time>
      </trkpt>
      <trkpt lat="47.8447" lon="3.56369">
        <ele>98.1</ele>
        <time>2025-02-26T11:39:01Z</time>
      </trkpt>
      <trkpt lat="47.84484" lon="3.56409">
        <ele>97.7</ele>
        <time>2025-02-26T11:39:11Z</time>
      </trkpt>
      <trkpt lat="47.84496" lon="3.56441">
        <ele>96.3</ele>
        <time>2025-02-26T11:39:18Z</time>
      </trkpt>
      <trkpt lat="47.84509" lon="3.56478">
        <ele>94.5</ele>
        <time>2025-02-26T11:39:31Z</time>
      </trkpt>
      <trkpt lat="47.84519" lon="3.56506">
        <ele>94</ele>
        <time>2025-02-26T11:39:40Z</time>
      </trkpt>
      <trkpt lat="47.84532" lon="3.56545">
        <ele>94</ele>
        <time>2025-02-26T11:39:56Z</time>
      </trkpt>
      <trkpt lat="47.84547" lon="3.56591">
        <ele>94</ele>
        <time>2025-02-26T11:40:11Z</time>
      </trkpt>
      <trkpt lat="47.84558" lon="3.56625">
        <ele>93.9</ele>
        <time>2025-02-26T11:40:30Z</time>
      </trkpt>
      <trkpt lat="47.84566" lon="3.56649">
        <ele>93.4</ele>
        <time>2025-02-26T11:40:42Z</time>
      </trkpt>
      <trkpt lat="47.84569" lon="3.56656">
        <ele>93.2</ele>
        <time>2025-02-26T11:40:55Z</time>
      </trkpt>
      <trkpt lat="47.84571" lon="3.56661">
        <ele>93.1</ele>
        <time>2025-02-26T11:41:06Z</time>
      </trkpt>
      <trkpt lat="47.84576" lon="3.56676">
        <ele>93.3</ele>
        <time>2025-02-26T11:41:13Z</time>
      </trkpt>
      <trkpt lat="47.8459" lon="3.56722">
        <ele>93.3</ele>
        <time>2025-02-26T11:41:31Z</time>
      </trkpt>
      <trkpt lat="47.84604" lon="3.56764">
        <ele>94</ele>
        <time>2025-02-26T11:41:42Z</time>
      </trkpt>
      <trkpt lat="47.8461" lon="3.56779">
        <ele>94</ele>
        <time>2025-02-26T11:42:00Z</time>
      </trkpt>
      <trkpt lat="47.84626" lon="3.56813">
        <ele>94</ele>
        <time>2025-02-26T11:42:08Z</time>
      </trkpt>
      <trkpt lat="47.84637" lon="3.56837">
        <ele>94</ele>
        <time>2025-02-26T11:42:14Z</time>
      </trkpt>
      <trkpt lat="47.84639" lon="3.56845">
        <ele>94</ele>
        <time>2025-02-26T11:42:29Z</time>
      </trkpt>
      <trkpt lat="47.84619" lon="3.56857">
        <ele>94</ele>
        <time>2025-02-26T11:42:47Z</time>
      </trkpt>
      <trkpt lat="47.84588" lon="3.56881">
        <ele>94</ele>
        <time>2025-02-26T11:43:02Z</time>
      </trkpt>
      <trkpt lat="47.84552" lon="3.56906">
        <ele>93.9</ele>
        <time>2025-02-26T11:43:11Z</time>
      </trkpt>
      <trkpt lat="47.84537" lon="3.56915">
        <ele>93.4</ele>
        <time>2025-02-26T11:43:24Z</time>
      </trkpt>
      <trkpt lat="47.84535" lon="3.56918">
        <ele>93.3</ele>
        <time>2025-02-26T11:43:27Z</time>
      </trkpt>
      <trkpt lat="47.84534" lon="3.56922">
        <ele>93.2</ele>
        <time>2025-02-26T11:43:47Z</time>
      </trkpt>
      <trkpt lat="47.84535" lon="3.56928">
        <ele>93.1</ele>
        <time>2025-02-26T11:43:54Z</time>
      </trkpt>
      <trkpt lat="47.8454" lon="3.56952">
        <ele>93</ele>
        <time>2025-02-26T11:43:57Z</time>
      </trkpt>
      <trkpt lat="47.84554" lon="3.57">
        <ele>93</ele>
        <time>2025-02-26T11:44:15Z</time>
      </trkpt>
      <trkpt lat="47.84562" lon="3.57027">
        <ele>92.8</ele>
        <time>2025-02-26T11:44:33Z</time>
      </trkpt>
      <trkpt lat="47.84578" lon="3.57071">
        <ele>93</ele>
        <time>2025-02-26T11:44:35Z</time>
      </trkpt>
      <trkpt lat="47.84592" lon="3.57108">
        <ele>93.6</ele>
        <time>2025-02-26T11:44:37Z</time>
      </trkpt>
      <trkpt lat="47.846" lon="3.57131">
        <ele>93.8</ele>
        <time>2025-02-26T11:44:43Z</time>
      </trkpt>
      <trkpt lat="47.84613" lon="3.57153">
        <ele>93.9</ele>
        <time>2025-02-26T11:44:54Z</time>
      </trkpt>
      <trkpt lat="47.8462" lon="3.57171">
        <ele>93.7</ele>
        <time>2025-02-26T11:45:11Z</time>
      </trkpt>
      <trkpt lat="47.84629" lon="3.57193">
        <ele>94</ele>
        <time>2025-02-26T11:45:14Z</time>
      </trkpt>
      <trkpt lat="47.84631" lon="3.57205">
        <ele>94</ele>
        <time>2025-02-26T11:45:28Z</time>
      </trkpt>
      <trkpt lat="47.84639" lon="3.57229">
        <ele>94</ele>
        <time>2025-02-26T11:45:37Z</time>
      </trkpt>
      <trkpt lat="47.84653" lon="3.57271">
        <ele>93.1</ele>
        <time>2025-02-26T11:45:48Z</time>
      </trkpt>
      <trkpt lat="47.84671" lon="3.57324">
        <ele>93</ele>
        <time>2025-02-26T11:46:05Z</time>
      </trkpt>
      <trkpt lat="47.84665" lon="3.57327">
        <ele>93</ele>
        <time>2025-02-26T11:46:15Z</time>
      </trkpt>
      <trkpt lat="47.84648" lon="3.57341">
        <ele>92.8</ele>
        <time>2025-02-26T11:46:27Z</time>
      </trkpt>
      <trkpt lat="47.84624" lon="3.57362">
        <ele>92.5</ele>
        <time>2025-02-26T11:46:32Z</time>
      </trkpt>
      <trkpt lat="47.84606" lon="3.57379">
        <ele>93</ele>
        <time>2025-02-26T11:46:38Z</time>
      </trkpt>
      <trkpt lat="47.84601" lon="3.57383">
        <ele>93</ele>
        <time>2025-02-26T11:46:46Z</time>
      </trkpt>
      <trkpt lat="47.84582" lon="3.574">
        <ele>92.2</ele>
        <time>2025-02-26T11:46:53Z</time>
      </trkpt>
      <trkpt lat="47.84586" lon="3.57402">
        <ele>92.1</ele>
        <time>2025-02-26T11:47:03Z</time>
      </trkpt>
      <trkpt lat="47.84604" lon="3.57413">
        <ele>91.9</ele>
        <time>2025-02-26T11:47:19Z</time>
      </trkpt>
      <trkpt lat="47.84613" lon="3.5742">
        <ele>91.9</ele>
        <time>2025-02-26T11:47:24Z</time>
      </trkpt>
      <trkpt lat="47.8463" lon="3.5744">
        <ele>91.7</ele>
        <time>2025-02-26T11:47:30Z</time>
      </trkpt>
      <trkpt lat="47.84638" lon="3.57452">
        <ele>92</ele>
        <time>2025-02-26T11:47:44Z</time>
      </trkpt>
      <trkpt lat="47.84643" lon="3.57464">
        <ele>92.1</ele>
        <time>2025-02-26T11:47:57Z</time>
      </trkpt>
      <trkpt lat="47.84658" lon="3.57512">
        <ele>92.4</ele>
        <time>2025-02-26T11:48:05Z</time>
      </trkpt>
      <trkpt lat="47.84666" lon="3.57538">
        <ele>92.6</ele>
        <time>2025-02-26T11:48:15Z</time>
      </trkpt>
      <trkpt lat="47.84674" lon="3.57568">
        <ele>92.2</ele>
        <time>2025-02-26T11:48:19Z</time>
      </trkpt>
      <trkpt lat="47.84679" lon="3.57589">
        <ele>92.3</ele>
        <time>2025-02-26T11:48:26Z</time>
      </trkpt>
      <trkpt lat="47.84682" lon="3.57605">
        <ele>92.2</ele>
        <time>2025-02-26T11:48:36Z</time>
      </trkpt>
      <trkpt lat="47.84685" lon="3.57622">
        <ele>92.3</ele>
        <time>2025-02-26T11:48:54Z</time>
      </trkpt>
      <trkpt lat="47.84687" lon="3.57632">
        <ele>92.5</ele>
        <time>2025-02-26T11:48:57Z</time>
      </trkpt>
      <trkpt lat="47.84687" lon="3.57639">
        <ele>92.4</ele>
        <time>2025-02-26T11:49:14Z</time>
      </trkpt>
      <trkpt lat="47.84688" lon="3.57669">
        <ele>92.5</ele>
        <time>2025-02-26T11:49:34Z</time>
      </trkpt>
      <trkpt lat="47.84689" lon="3.57692">
        <ele>92.4</ele>
        <time>2025-02-26T11:49:36Z</time>
      </trkpt>
      <trkpt lat="47.84693" lon="3.57731">
        <ele>92.6</ele>
        <time>2025-02-26T11:49:47Z</time>
      </trkpt>
      <trkpt lat="47.84696" lon="3.57767">
        <ele>91.5</ele>
        <time>2025-02-26T11:49:54Z</time>
      </trkpt>
      <trkpt lat="47.847" lon="3.57789">
        <ele>91.2</ele>
        <time>2025-02-26T11:49:57Z</time>
      </trkpt>
      <trkpt lat="47.84702" lon="3.57802">
        <ele>91.3</ele>
        <time>2025-02-26T11:50:00Z</time>
      </trkpt>
      <trkpt lat="47.84705" lon="3.57811">
        <ele>91.4</ele>
        <time>2025-02-26T11:50:17Z</time>
      </trkpt>
      <trkpt lat="47.84717" lon="3.57819">
        <ele>91.8</ele>
        <time>2025-02-26T11:50:25Z</time>
      </trkpt>
      <trkpt lat="47.84726" lon="3.57823">
        <ele>91.9</ele>
        <time>2025-02-26T11:50:29Z</time>
      </trkpt>
      <trkpt lat="47.84731" lon="3.57821">
        <ele>91.7</ele>
        <time>2025-02-26T11:50:36Z</time>
      </trkpt>
      <trkpt lat="47.84745" lon="3.57815">
        <ele>91.2</ele>
        <time>2025-02-26T11:50:56Z</time>
      </trkpt>
      <trkpt lat="47.84757" lon="3.57803">
        <ele>91.1</ele>
        <time>2025-02-26T11:51:10Z</time>
      </trkpt>
      <trkpt lat="47.84769" lon="3.57789">
        <ele>91.2</ele>
        <time>2025-02-26T11:51:21Z</time>
      </trkpt>
      <trkpt lat="47.84782" lon="3.57775">
        <ele>91.1</ele>
        <time>2025-02-26T11:51:39Z</time>
      </trkpt>
      <trkpt lat="47.84792" lon="3.57765">
        <ele>91.2</ele>
        <time>2025-02-26T11:51:57Z</time>
      </trkpt>
      <trkpt lat="47.84806" lon="3.57752">
        <ele>91</ele>
        <time>2025-02-26T11:52:14Z</time>
      </trkpt>
      <trkpt lat="47.84816" lon="3.5774">
        <ele>91.4</ele>
        <time>2025-02-26T11:52:24Z</time>
      </trkpt>
      <trkpt lat="47.84816" lon="3.57733">
        <ele>91.6</ele>
        <time>2025-02-26T11:52:27Z</time>
      </trkpt>
      <trkpt lat="47.84816" lon="3.57724">
        <ele>91.9</ele>
        <time>2025-02-26T11:52:43Z</time>
      </trkpt>
      <trkpt lat="47.84814" lon="3.57706">
        <ele>92.6</ele>
        <time>2025-02-26T11:52:54Z</time>
      </trkpt>
      <trkpt lat="47.84807" lon="3.57638">
        <ele>94</ele>
        <time>2025-02-26T11:53:02Z</time>
      </trkpt>
      <trkpt lat="47.84803" lon="3.57599">
        <ele>94</ele>
        <time>2025-02-26T11:53:16Z</time>
      </trkpt>
      <trkpt lat="47.84803" lon="3.57588">
        <ele>94</ele>
        <time>2025-02-26T11:53:25Z</time>
      </trkpt>
      <trkpt lat="47.84801" lon="3.57574">
        <ele>94</ele>
        <time>2025-02-26T11:53:30Z</time>
      </trkpt>
      <trkpt lat="47.848" lon="3.57562">
        <ele>94</ele>
        <time>2025-02-26T11:53:34Z</time>
      </trkpt>
      <trkpt lat="47.84802" lon="3.57555">
        <ele>94</ele>
        <time>2025-02-26T11:53:47Z</time>
      </trkpt>
      <trkpt lat="47.84807" lon="3.57551">
        <ele>94</ele>
        <time>2025-02-26T11:53:58Z</time>
      </trkpt>
      <trkpt lat="47.84827" lon="3.57542">
        <ele>94</ele>
        <time>2025-02-26T11:54:05Z</time>
      </trkpt>
      <trkpt lat="47.84839" lon="3.57535">
        <ele>93.9</ele>
        <time>2025-02-26T11:54:10Z</time>
      </trkpt>
      <trkpt lat="47.84847" lon="3.57549">
        <ele>93.9</ele>
        <time>2025-02-26T11:54:14Z</time>
      </trkpt>
      <trkpt lat="47.84849" lon="3.57554">
        <ele>94</ele>
        <time>2025-02-26T11:54:16Z</time>
      </trkpt>
      <trkpt lat="47.84853" lon="3.5756">
        <ele>94</ele>
        <time>2025-02-26T11:54:26Z</time>
      </trkpt>
      <trkpt lat="47.84862" lon="3.57567">
        <ele>94</ele>
        <time>2025-02-26T11:54:33Z</time>
      </trkpt>
      <trkpt lat="47.84875" lon="3.57576">
        <ele>94</ele>
        <time>2025-02-26T11:54:46Z</time>
      </trkpt>
      <trkpt lat="47.84879" lon="3.57578">
        <ele>94</ele>
        <time>2025-02-26T11:54:59Z</time>
      </trkpt>
      <trkpt lat="47.84887" lon="3.57589">
        <ele>94</ele>
        <time>2025-02-26T11:55:14Z</time>
      </trkpt>
      <trkpt lat="47.84892" lon="3.57594">
        <ele>93.9</ele>
        <time>2025-02-26T11:55:23Z</time>
      </trkpt>
      <trkpt lat="47.849" lon="3.57607">
        <ele>93.9</ele>
        <time>2025-02-26T11:55:25Z</time>
      </trkpt>
      <trkpt lat="47.8491" lon="3.57624">
        <ele>94.2</ele>
        <time>2025-02-26T11:55:36Z</time>
      </trkpt>
      <trkpt lat="47.84923" lon="3.5765">
        <ele>93.9</ele>
        <time>2025-02-26T11:55:41Z</time>
      </trkpt>
      <trkpt lat="47.84936" lon="3.57678">
        <ele>93.1</ele>
        <time>2025-02-26T11:55:51Z</time>
      </trkpt>
      <trkpt lat="47.84944" lon="3.57704">
        <ele>91.3</ele>
        <time>2025-02-26T11:56:07Z</time>
      </trkpt>
      <trkpt lat="47.84951" lon="3.57726">
        <ele>90</ele>
        <time>2025-02-26T11:56:23Z</time>
      </trkpt>
      <trkpt lat="47.84964" lon="3.57767">
        <ele>90.7</ele>
        <time>2025-02-26T11:56:26Z</time>
      </trkpt>
      <trkpt lat="47.84972" lon="3.57792">
        <ele>93</ele>
        <time>2025-02-26T11:56:37Z</time>
      </trkpt>
      <trkpt lat="47.84976" lon="3.57803">
        <ele>94.5</ele>
        <time>2025-02-26T11:56:43Z</time>
      </trkpt>
      <trkpt lat="47.84979" lon="3.57818">
        <ele>94.9</ele>
        <time>2025-02-26T11:56:52Z</time>
      </trkpt>
      <trkpt lat="47.84983" lon="3.57856">
        <ele>95</ele>
        <time>2025-02-26T11:56:57Z</time>
      </trkpt>
      <trkpt lat="47.84974" lon="3.57857">
        <ele>95</ele>
        <time>2025-02-26T11:57:06Z</time>
      </trkpt>
      <trkpt lat="47.8497" lon="3.57858">
        <ele>94.9</ele>
        <time>2025-02-26T11:57:08Z</time>
      </trkpt>
      <trkpt lat="47.8496" lon="3.57858">
        <ele>94.5</ele>
        <time>2025-02-26T11:57:18Z</time>
      </trkpt>
      <trkpt lat="47.84951" lon="3.57859">
        <ele>94.2</ele>
        <time>2025-02-26T11:57:22Z</time>
      </trkpt>
      <trkpt lat="47.84938" lon="3.57861">
        <ele>94</ele>
        <time>2025-02-26T11:57:32Z</time>
      </trkpt>
      <trkpt lat="47.84919" lon="3.57863">
        <ele>94.1</ele>
        <time>2025-02-26T11:57:45Z</time>
      </trkpt>
      <trkpt lat="47.84892" lon="3.57865">
        <ele>93.3</ele>
        <time>2025-02-26T11:57:55Z</time>
      </trkpt>
      <trkpt lat="47.84879" lon="3.57869">
        <ele>93</ele>
        <time>2025-02-26T11:58:03Z</time>
      </trkpt>
      <trkpt lat="47.84843" lon="3.57883">
        <ele>93.4</ele>
        <time>2025-02-26T11:58:07Z</time>
      </trkpt>
      <trkpt lat="47.84823" lon="3.57892">
        <ele>93.7</ele>
        <time>2025-02-26T11:58:11Z</time>
      </trkpt>
      <trkpt lat="47.84802" lon="3.57902">
        <ele>93.7</ele>
        <time>2025-02-26T11:58:28Z</time>
      </trkpt>
      <trkpt lat="47.84782" lon="3.57907">
        <ele>93.2</ele>
        <time>2025-02-26T11:58:46Z</time>
      </trkpt>
      <trkpt lat="47.84759" lon="3.57915">
        <ele>93.8</ele>
        <time>2025-02-26T11:58:49Z</time>
      </trkpt>
      <trkpt lat="47.84752" lon="3.57919">
        <ele>94.1</ele>
        <time>2025-02-26T11:58:58Z</time>
      </trkpt>
      <trkpt lat="47.8473" lon="3.57924">
        <ele>94.3</ele>
        <time>2025-02-26T11:59:17Z</time>
      </trkpt>
      <trkpt lat="47.84716" lon="3.57926">
        <ele>94.3</ele>
        <time>2025-02-26T11:59:31Z</time>
      </trkpt>
      <trkpt lat="47.84705" lon="3.57928">
        <ele>94.4</ele>
        <time>2025-02-26T11:59:42Z</time>
      </trkpt>
      <trkpt lat="47.84692" lon="3.5793">
        <ele>94.5</ele>
        <time>2025-02-26T11:59:54Z</time>
      </trkpt>
      <trkpt lat="47.8467" lon="3.57934">
        <ele>94.6</ele>
        <time>2025-02-26T12:00:05Z</time>
      </trkpt>
      <trkpt lat="47.84663" lon="3.57939">
        <ele>94.8</ele>
        <time>2025-02-26T12:00:14Z</time>
      </trkpt>
      <trkpt lat="47.84661" lon="3.57929">
        <ele>94.4</ele>
        <time>2025-02-26T12:00:20Z</time>
      </trkpt>
      <trkpt lat="47.84658" lon="3.57917">
        <ele>94</ele>
        <time>2025-02-26T12:00:40Z</time>
      </trkpt>
      <trkpt lat="47.8464" lon="3.57892">
        <ele>92.2</ele>
        <time>2025-02-26T12:00:48Z</time>
      </trkpt>
      <trkpt lat="47.84637" lon="3.57885">
        <ele>91.9</ele>
        <time>2025-02-26T12:01:04Z</time>
      </trkpt>
      <trkpt lat="47.84628" lon="3.57863">
        <ele>91.1</ele>
        <time>2025-02-26T12:01:23Z</time>
      </trkpt>
      <trkpt lat="47.84625" lon="3.57857">
        <ele>91.1</ele>
        <time>2025-02-26T12:01:26Z</time>
      </trkpt>
      <trkpt lat="47.84624" lon="3.57845">
        <ele>91.3</ele>
        <time>2025-02-26T12:01:32Z</time>
      </trkpt>
      <trkpt lat="47.84619" lon="3.57791">
        <ele>91</ele>
        <time>2025-02-26T12:01:42Z</time>
      </trkpt>
      <trkpt lat="47.84614" lon="3.57752">
        <ele>91</ele>
        <time>2025-02-26T12:01:54Z</time>
      </trkpt>
      <trkpt lat="47.84609" lon="3.57707">
        <ele>91.1</ele>
        <time>2025-02-26T12:02:07Z</time>
      </trkpt>
      <trkpt lat="47.84606" lon="3.57682">
        <ele>91.2</ele>
        <time>2025-02-26T12:02:14Z</time>
      </trkpt>
      <trkpt lat="47.84603" lon="3.57655">
        <ele>91.3</ele>
        <time>2025-02-26T12:02:20Z</time>
      </trkpt>
      <trkpt lat="47.84599" lon="3.57616">
        <ele>91.4</ele>
        <time>2025-02-26T12:02:32Z</time>
      </trkpt>
      <trkpt lat="47.84598" lon="3.57606">
        <ele>91.4</ele>
        <time>2025-02-26T12:02:39Z</time>
      </trkpt>
      <trkpt lat="47.84593" lon="3.57571">
        <ele>91</ele>
        <time>2025-02-26T12:02:58Z</time>
      </trkpt>
      <trkpt lat="47.8459" lon="3.57552">
        <ele>91</ele>
        <time>2025-02-26T12:03:14Z</time>
      </trkpt>
      <trkpt lat="47.84588" lon="3.57543">
        <ele>91</ele>
        <time>2025-02-26T12:03:32Z</time>
      </trkpt>
      <trkpt lat="47.84585" lon="3.57536">
        <ele>91</ele>
        <time>2025-02-26T12:03:42Z</time>
      </trkpt>
      <trkpt lat="47.8458" lon="3.57531">
        <ele>91</ele>
        <time>2025-02-26T12:03:48Z</time>
      </trkpt>
      <trkpt lat="47.84574" lon="3.57526">
        <ele>91</ele>
        <time>2025-02-26T12:03:59Z</time>
      </trkpt>
      <trkpt lat="47.84565" lon="3.57524">
        <ele>91</ele>
        <time>2025-02-26T12:04:01Z</time>
      </trkpt>
      <trkpt lat="47.84551" lon="3.57525">
        <ele>91.2</ele>
        <time>2025-02-26T12:04:16Z</time>
      </trkpt>
      <trkpt lat="47.84532" lon="3.5753">
        <ele>91.9</ele>
        <time>2025-02-26T12:04:32Z</time>
      </trkpt>
      <trkpt lat="47.84509" lon="3.57536">
        <ele>92</ele>
        <time>2025-02-26T12:04:51Z</time>
      </trkpt>
      <trkpt lat="47.84496" lon="3.5754">
        <ele>91.9</ele>
        <time>2025-02-26T12:05:09Z</time>
      </trkpt>
      <trkpt lat="47.84491" lon="3.57542">
        <ele>91.8</ele>
        <time>2025-02-26T12:05:18Z</time>
      </trkpt>
      <trkpt lat="47.84471" lon="3.57551">
        <ele>91.8</ele>
        <time>2025-02-26T12:05:26Z</time>
      </trkpt>
      <trkpt lat="47.8445" lon="3.57564">
        <ele>91.7</ele>
        <time>2025-02-26T12:05:33Z</time>
      </trkpt>
      <trkpt lat="47.84426" lon="3.57577">
        <ele>92.5</ele>
        <time>2025-02-26T12:05:38Z</time>
      </trkpt>
      <trkpt lat="47.84413" lon="3.57583">
        <ele>92.7</ele>
        <time>2025-02-26T12:05:40Z</time>
      </trkpt>
      <trkpt lat="47.84398" lon="3.57588">
        <ele>91.9</ele>
        <time>2025-02-26T12:05:52Z</time>
      </trkpt>
      <trkpt lat="47.84393" lon="3.5759">
        <ele>91.7</ele>
        <time>2025-02-26T12:06:11Z</time>
      </trkpt>
      <trkpt lat="47.84369" lon="3.57601">
        <ele>92.3</ele>
        <time>2025-02-26T12:06:31Z</time>
      </trkpt>
      <trkpt lat="47.84356" lon="3.57607">
        <ele>92.7</ele>
        <time>2025-02-26T12:06:42Z</time>
      </trkpt>
      <trkpt lat="47.84345" lon="3.57615">
        <ele>93</ele>
        <time>2025-02-26T12:06:48Z</time>
      </trkpt>
      <trkpt lat="47.84334" lon="3.57624">
        <ele>93</ele>
        <time>2025-02-26T12:07:08Z</time>
      </trkpt>
      <trkpt lat="47.84329" lon="3.5763">
        <ele>93.1</ele>
        <time>2025-02-26T12:07:19Z</time>
      </trkpt>
      <trkpt lat="47.84326" lon="3.57627">
        <ele>93.1</ele>
        <time>2025-02-26T12:07:23Z</time>
      </trkpt>
      <trkpt lat="47.84314" lon="3.57627">
        <ele>93.4</ele>
        <time>2025-02-26T12:07:32Z</time>
      </trkpt>
      <trkpt lat="47.84296" lon="3.57633">
        <ele>93.5</ele>
        <time>2025-02-26T12:07:44Z</time>
      </trkpt>
      <trkpt lat="47.84273" lon="3.57642">
        <ele>93</ele>
        <time>2025-02-26T12:07:47Z</time>
      </trkpt>
      <trkpt lat="47.84256" lon="3.5765">
        <ele>93.3</ele>
        <time>2025-02-26T12:08:01Z</time>
      </trkpt>
      <trkpt lat="47.84238" lon="3.57655">
        <ele>93.6</ele>
        <time>2025-02-26T12:08:09Z</time>
      </trkpt>
      <trkpt lat="47.84232" lon="3.57658">
        <ele>93.7</ele>
        <time>2025-02-26T12:08:28Z</time>
      </trkpt>
      <trkpt lat="47.84228" lon="3.57658">
        <ele>93.7</ele>
        <time>2025-02-26T12:08:48Z</time>
      </trkpt>
      <trkpt lat="47.84223" lon="3.57659">
        <ele>93.7</ele>
        <time>2025-02-26T12:08:52Z</time>
      </trkpt>
      <trkpt lat="47.84208" lon="3.57658">
        <ele>93.7</ele>
        <time>2025-02-26T12:08:58Z</time>
      </trkpt>
      <trkpt lat="47.84178" lon="3.57653">
        <ele>93.8</ele>
        <time>2025-02-26T12:09:03Z</time>
      </trkpt>
      <trkpt lat="47.84155" lon="3.57648">
        <ele>94</ele>
        <time>2025-02-26T12:09:21Z</time>
      </trkpt>
      <trkpt lat="47.84145" lon="3.57644">
        <ele>94</ele>
        <time>2025-02-26T12:09:29Z</time>
      </trkpt>
      <trkpt lat="47.84131" lon="3.57637">
        <ele>93.9</ele>
        <time>2025-02-26T12:09:36Z</time>
      </trkpt>
      <trkpt lat="47.84127" lon="3.57634">
        <ele>93.8</ele>
        <time>2025-02-26T12:09:46Z</time>
      </trkpt>
      <trkpt lat="47.84113" lon="3.57623">
        <ele>93.4</ele>
        <time>2025-02-26T12:09:55Z</time>
      </trkpt>
      <trkpt lat="47.84096" lon="3.57608">
        <ele>93</ele>
        <time>2025-02-26T12:09:57Z</time>
      </trkpt>
      <trkpt lat="47.84072" lon="3.57586">
        <ele>93</ele>
        <time>2025-02-26T12:10:12Z</time>
      </trkpt>
      <trkpt lat="47.84049" lon="3.57564">
        <ele>93</ele>
        <time>2025-02-26T12:10:24Z</time>
      </trkpt>
      <trkpt lat="47.84026" lon="3.57539">
        <ele>93</ele>
        <time>2025-02-26T12:10:26Z</time>
      </trkpt>
      <trkpt lat="47.84004" lon="3.57514">
        <ele>93</ele>
        <time>2025-02-26T12:10:28Z</time>
      </trkpt>
      <trkpt lat="47.8399" lon="3.57497">
        <ele>93</ele>
        <time>2025-02-26T12:10:34Z</time>
      </trkpt>
      <trkpt lat="47.83982" lon="3.57488">
        <ele>93</ele>
        <time>2025-02-26T12:10:43Z</time>
      </trkpt>
      <trkpt lat="47.83965" lon="3.57472">
        <ele>93</ele>
        <time>2025-02-26T12:10:54Z</time>
      </trkpt>
      <trkpt lat="47.83944" lon="3.57453">
        <ele>93</ele>
        <time>2025-02-26T12:11:03Z</time>
      </trkpt>
      <trkpt lat="47.83931" lon="3.57444">
        <ele>93</ele>
        <time>2025-02-26T12:11:12Z</time>
      </trkpt>
      <trkpt lat="47.83922" lon="3.57437">
        <ele>93</ele>
        <time>2025-02-26T12:11:25Z</time>
      </trkpt>
      <trkpt lat="47.83907" lon="3.5743">
        <ele>93</ele>
        <time>2025-02-26T12:11:43Z</time>
      </trkpt>
      <trkpt lat="47.83878" lon="3.57417">
        <ele>93</ele>
        <time>2025-02-26T12:11:52Z</time>
      </trkpt>
      <trkpt lat="47.8386" lon="3.57411">
        <ele>93</ele>
        <time>2025-02-26T12:12:05Z</time>
      </trkpt>
      <trkpt lat="47.8384" lon="3.57404">
        <ele>93</ele>
        <time>2025-02-26T12:12:18Z</time>
      </trkpt>
      <trkpt lat="47.83819" lon="3.57397">
        <ele>93</ele>
        <time>2025-02-26T12:12:35Z</time>
      </trkpt>
      <trkpt lat="47.83789" lon="3.57388">
        <ele>93</ele>
        <time>2025-02-26T12:12:39Z</time>
      </trkpt>
      <trkpt lat="47.83762" lon="3.57379">
        <ele>93</ele>
        <time>2025-02-26T12:12:43Z</time>
      </trkpt>
      <trkpt lat="47.83736" lon="3.57372">
        <ele>93.1</ele>
        <time>2025-02-26T12:12:53Z</time>
      </trkpt>
      <trkpt lat="47.83705" lon="3.57363">
        <ele>93.1</ele>
        <time>2025-02-26T12:13:12Z</time>
      </trkpt>
      <trkpt lat="47.83684" lon="3.57356">
        <ele>93.3</ele>
        <time>2025-02-26T12:13:28Z</time>
      </trkpt>
      <trkpt lat="47.83657" lon="3.57348">
        <ele>93.4</ele>
        <time>2025-02-26T12:13:45Z</time>
      </trkpt>
      <trkpt lat="47.83627" lon="3.57341">
        <ele>92.9</ele>
        <time>2025-02-26T12:13:56Z</time>
      </trkpt>
      <trkpt lat="47.83578" lon="3.57329">
        <ele>93.2</ele>
        <time>2025-02-26T12:14:15Z</time>
      </trkpt>
      <trkpt lat="47.83552" lon="3.57322">
        <ele>93.6</ele>
        <time>2025-02-26T12:14:18Z</time>
      </trkpt>
      <trkpt lat="47.83518" lon="3.57314">
        <ele>93.3</ele>
        <time>2025-02-26T12:14:36Z</time>
      </trkpt>
      <trkpt lat="47.83491" lon="3.57306">
        <ele>93.3</ele>
        <time>2025-02-26T12:14:51Z</time>
      </trkpt>
      <trkpt lat="47.8347" lon="3.573">
        <ele>93.8</ele>
        <time>2025-02-26T12:15:07Z</time>
      </trkpt>
      <trkpt lat="47.83444" lon="3.57291">
        <ele>93.5</ele>
        <time>2025-02-26T12:15:21Z</time>
      </trkpt>
      <trkpt lat="47.83416" lon="3.57281">
        <ele>94</ele>
        <time>2025-02-26T12:15:39Z</time>
      </trkpt>
      <trkpt lat="47.83397" lon="3.57274">
        <ele>93.9</ele>
        <time>2025-02-26T12:15:48Z</time>
      </trkpt>
      <trkpt lat="47.83369" lon="3.57264">
        <ele>93.5</ele>
        <time>2025-02-26T12:15:50Z</time>
      </trkpt>
      <trkpt lat="47.83336" lon="3.57252">
        <ele>93.9</ele>
        <time>2025-02-26T12:16:05Z</time>
      </trkpt>
      <trkpt lat="47.83315" lon="3.57244">
        <ele>93.8</ele>
        <time>2025-02-26T12:16:20Z</time>
      </trkpt>
      <trkpt lat="47.83291" lon="3.57236">
        <ele>93.8</ele>
        <time>2025-02-26T12:16:38Z</time>
      </trkpt>
      <trkpt lat="47.83275" lon="3.5723">
        <ele>94</ele>
        <time>2025-02-26T12:16:56Z</time>
      </trkpt>
      <trkpt lat="47.83248" lon="3.57221">
        <ele>94</ele>
        <time>2025-02-26T12:17:03Z</time>
      </trkpt>
      <trkpt lat="47.83223" lon="3.57213">
        <ele>94</ele>
        <time>2025-02-26T12:17:23Z</time>
      </trkpt>
      <trkpt lat="47.83216" lon="3.57212">
        <ele>94</ele>
        <time>2025-02-26T12:17:30Z</time>
      </trkpt>
      <trkpt lat="47.83212" lon="3.5721">
        <ele>94</ele>
        <time>2025-02-26T12:17:36Z</time>
      </trkpt>
      <trkpt lat="47.83209" lon="3.57209">
        <ele>94</ele>
        <time>2025-02-26T12:17:45Z</time>
      </trkpt>
      <trkpt lat="47.83183" lon="3.57203">
        <ele>94</ele>
        <time>2025-02-26T12:17:48Z</time>
      </trkpt>
      <trkpt lat="47.83164" lon="3.57198">
        <ele>94</ele>
        <time>2025-02-26T12:17:50Z</time>
      </trkpt>
      <trkpt lat="47.83143" lon="3.57192">
        <ele>93.9</ele>
        <time>2025-02-26T12:17:58Z</time>
      </trkpt>
      <trkpt lat="47.83121" lon="3.57188">
        <ele>93.8</ele>
        <time>2025-02-26T12:18:11Z</time>
      </trkpt>
      <trkpt lat="47.83108" lon="3.57185">
        <ele>93.7</ele>
        <time>2025-02-26T12:18:19Z</time>
      </trkpt>
      <trkpt lat="47.831" lon="3.57184">
        <ele>93.6</ele>
        <time>2025-02-26T12:18:26Z</time>
      </trkpt>
      <trkpt lat="47.83093" lon="3.57184">
        <ele>93.6</ele>
        <time>2025-02-26T12:18:45Z</time>
      </trkpt>
      <trkpt lat="47.8308" lon="3.57183">
        <ele>93.6</ele>
        <time>2025-02-26T12:18:48Z</time>
      </trkpt>
      <trkpt lat="47.8305" lon="3.57188">
        <ele>93.7</ele>
        <time>2025-02-26T12:18:59Z</time>
      </trkpt>
      <trkpt lat="47.8303" lon="3.5719">
        <ele>93.7</ele>
        <time>2025-02-26T12:19:05Z</time>
      </trkpt>
      <trkpt lat="47.83011" lon="3.57192">
        <ele>93.8</ele>
        <time>2025-02-26T12:19:18Z</time>
      </trkpt>
      <trkpt lat="47.83013" lon="3.57234">
        <ele>94.7</ele>
        <time>2025-02-26T12:19:29Z</time>
      </trkpt>
      <trkpt lat="47.83013" lon="3.57253">
        <ele>95</ele>
        <time>2025-02-26T12:19:33Z</time>
      </trkpt>
      <trkpt lat="47.83014" lon="3.5728">
        <ele>95</ele>
        <time>2025-02-26T12:19:36Z</time>
      </trkpt>
      <trkpt lat="47.83014" lon="3.57304">
        <ele>95</ele>
        <time>2025-02-26T12:19:39Z</time>
      </trkpt>
      <trkpt lat="47.83011" lon="3.57304">
        <ele>95</ele>
        <time>2025-02-26T12:19:53Z</time>
      </trkpt>
      <trkpt lat="47.83002" lon="3.57315">
        <ele>95</ele>
        <time>2025-02-26T12:20:06Z</time>
      </trkpt>
      <trkpt lat="47.82993" lon="3.57323">
        <ele>95</ele>
        <time>2025-02-26T12:20:17Z</time>
      </trkpt>
      <trkpt lat="47.82981" lon="3.57324">
        <ele>95</ele>
        <time>2025-02-26T12:20:35Z</time>
      </trkpt>
      <trkpt lat="47.82963" lon="3.57329">
        <ele>95</ele>
        <time>2025-02-26T12:20:40Z</time>
      </trkpt>
      <trkpt lat="47.82942" lon="3.57334">
        <ele>95</ele>
        <time>2025-02-26T12:20:48Z</time>
      </trkpt>
      <trkpt lat="47.8293" lon="3.57338">
        <ele>95</ele>
        <time>2025-02-26T12:20:53Z</time>
      </trkpt>
      <trkpt lat="47.82906" lon="3.57343">
        <ele>95</ele>
        <time>2025-02-26T12:21:08Z</time>
      </trkpt>
      <trkpt lat="47.82877" lon="3.57351">
        <ele>95</ele>
        <time>2025-02-26T12:21:28Z</time>
      </trkpt>
      <trkpt lat="47.82861" lon="3.57354">
        <ele>95</ele>
        <time>2025-02-26T12:21:37Z</time>
      </trkpt>
      <trkpt lat="47.82842" lon="3.57359">
        <ele>95</ele>
        <time>2025-02-26T12:21:49Z</time>
      </trkpt>
      <trkpt lat="47.82814" lon="3.57366">
        <ele>95</ele>
        <time>2025-02-26T12:22:04Z</time>
      </trkpt>
      <trkpt lat="47.82786" lon="3.57373">
        <ele>95</ele>
        <time>2025-02-26T12:22:10Z</time>
      </trkpt>
      <trkpt lat="47.82769" lon="3.57378">
        <ele>95</ele>
        <time>2025-02-26T12:22:28Z</time>
      </trkpt>
      <trkpt lat="47.82742" lon="3.57384">
        <ele>95</ele>
        <time>2025-02-26T12:22:45Z</time>
      </trkpt>
      <trkpt lat="47.8271" lon="3.57392">
        <ele>95.1</ele>
        <time>2025-02-26T12:22:54Z</time>
      </trkpt>
      <trkpt lat="47.82672" lon="3.57402">
        <ele>95.1</ele>
        <time>2025-02-26T12:22:59Z</time>
      </trkpt>
      <trkpt lat="47.82632" lon="3.57411">
        <ele>95.3</ele>
        <time>2025-02-26T12:23:13Z</time>
      </trkpt>
      <trkpt lat="47.82605" lon="3.57419">
        <ele>95.9</ele>
        <time>2025-02-26T12:23:33Z</time>
      </trkpt>
      <trkpt lat="47.82575" lon="3.57426">
        <ele>96</ele>
        <time>2025-02-26T12:23:51Z</time>
      </trkpt>
      <trkpt lat="47.82536" lon="3.57436">
        <ele>96</ele>
        <time>2025-02-26T12:24:09Z</time>
      </trkpt>
      <trkpt lat="47.82516" lon="3.57441">
        <ele>96</ele>
        <time>2025-02-26T12:24:18Z</time>
      </trkpt>
      <trkpt lat="47.82484" lon="3.57449">
        <ele>96</ele>
        <time>2025-02-26T12:24:20Z</time>
      </trkpt>
      <trkpt lat="47.82456" lon="3.57457">
        <ele>96</ele>
        <time>2025-02-26T12:24:33Z</time>
      </trkpt>
      <trkpt lat="47.82429" lon="3.57464">
        <ele>96</ele>
        <time>2025-02-26T12:24:38Z</time>
      </trkpt>
      <trkpt lat="47.8239" lon="3.57473">
        <ele>96</ele>
        <time>2025-02-26T12:24:49Z</time>
      </trkpt>
      <trkpt lat="47.82385" lon="3.57474">
        <ele>95.9</ele>
        <time>2025-02-26T12:24:59Z</time>
      </trkpt>
      <trkpt lat="47.82355" lon="3.57479">
        <ele>95.2</ele>
        <time>2025-02-26T12:25:17Z</time>
      </trkpt>
      <trkpt lat="47.8233" lon="3.57483">
        <ele>95</ele>
        <time>2025-02-26T12:25:29Z</time>
      </trkpt>
      <trkpt lat="47.82298" lon="3.57489">
        <ele>95</ele>
        <time>2025-02-26T12:25:43Z</time>
      </trkpt>
      <trkpt lat="47.82288" lon="3.57491">
        <ele>95</ele>
        <time>2025-02-26T12:25:52Z</time>
      </trkpt>
      <trkpt lat="47.82288" lon="3.57505">
        <ele>95.1</ele>
        <time>2025-02-26T12:26:02Z</time>
      </trkpt>
      <trkpt lat="47.82289" lon="3.57523">
        <ele>95.3</ele>
        <time>2025-02-26T12:26:15Z</time>
      </trkpt>
      <trkpt lat="47.82292" lon="3.57574">
        <ele>96</ele>
        <time>2025-02-26T12:26:28Z</time>
      </trkpt>
      <trkpt lat="47.82294" lon="3.5761">
        <ele>96</ele>
        <time>2025-02-26T12:26:43Z</time>
      </trkpt>
      <trkpt lat="47.82299" lon="3.57678">
        <ele>96</ele>
        <time>2025-02-26T12:26:57Z</time>
      </trkpt>
      <trkpt lat="47.82302" lon="3.57745">
        <ele>96</ele>
        <time>2025-02-26T12:27:11Z</time>
      </trkpt>
      <trkpt lat="47.82306" lon="3.57789">
        <ele>96</ele>
        <time>2025-02-26T12:27:28Z</time>
      </trkpt>
      <trkpt lat="47.82308" lon="3.57836">
        <ele>96</ele>
        <time>2025-02-26T12:27:37Z</time>
      </trkpt>
      <trkpt lat="47.82309" lon="3.57859">
        <ele>96</ele>
        <time>2025-02-26T12:27:41Z</time>
      </trkpt>
      <trkpt lat="47.82311" lon="3.57885">
        <ele>96</ele>
        <time>2025-02-26T12:28:01Z</time>
      </trkpt>
      <trkpt lat="47.82314" lon="3.57885">
        <ele>96</ele>
        <time>2025-02-26T12:28:04Z</time>
      </trkpt>
      <trkpt lat="47.82337" lon="3.57882">
        <ele>96</ele>
        <time>2025-02-26T12:28:15Z</time>
      </trkpt>
      <trkpt lat="47.82372" lon="3.57877">
        <ele>96</ele>
        <time>2025-02-26T12:28:21Z</time>
      </trkpt>
      <trkpt lat="47.82383" lon="3.57875">
        <ele>96</ele>
        <time>2025-02-26T12:28:38Z</time>
      </trkpt>
      <trkpt lat="47.82399" lon="3.57872">
        <ele>96</ele>
        <time>2025-02-26T12:28:41Z</time>
      </trkpt>
      <trkpt lat="47.82423" lon="3.57869">
        <ele>96</ele>
        <time>2025-02-26T12:29:00Z</time>
      </trkpt>
      <trkpt lat="47.82442" lon="3.57867">
        <ele>96</ele>
        <time>2025-02-26T12:29:14Z</time>
      </trkpt>
      <trkpt lat="47.82471" lon="3.57863">
        <ele>96</ele>
        <time>2025-02-26T12:29:22Z</time>
      </trkpt>
      <trkpt lat="47.82476" lon="3.57863">
        <ele>96</ele>
        <time>2025-02-26T12:29:33Z</time>
      </trkpt>
      <trkpt lat="47.82491" lon="3.57859">
        <ele>96</ele>
        <time>2025-02-26T12:29:39Z</time>
      </trkpt>
      <trkpt lat="47.825" lon="3.57858">
        <ele>96</ele>
        <time>2025-02-26T12:29:43Z</time>
      </trkpt>
      <trkpt lat="47.82516" lon="3.57857">
        <ele>96</ele>
        <time>2025-02-26T12:29:54Z</time>
      </trkpt>
      <trkpt lat="47.82532" lon="3.57854">
        <ele>96</ele>
        <time>2025-02-26T12:30:01Z</time>
      </trkpt>
      <trkpt lat="47.82548" lon="3.57852">
        <ele>96</ele>
        <time>2025-02-26T12:30:18Z</time>
      </trkpt>
      <trkpt lat="47.82567" lon="3.57849">
        <ele>96</ele>
        <time>2025-02-26T12:30:27Z</time>
      </trkpt>
      <trkpt lat="47.8259" lon="3.57846">
        <ele>96</ele>
        <time>2025-02-26T12:30:32Z</time>
      </trkpt>
      <trkpt lat="47.82617" lon="3.57843">
        <ele>96</ele>
        <time>2025-02-26T12:30:46Z</time>
      </trkpt>
      <trkpt lat="47.82646" lon="3.57839">
        <ele>96</ele>
        <time>2025-02-26T12:30:53Z</time>
      </trkpt>
      <trkpt lat="47.82681" lon="3.57834">
        <ele>95.5</ele>
        <time>2025-02-26T12:30:55Z</time>
      </trkpt>
      <trkpt lat="47.82691" lon="3.57833">
        <ele>95.1</ele>
        <time>2025-02-26T12:31:04Z</time>
      </trkpt>
      <trkpt lat="47.827" lon="3.57832">
        <ele>95.1</ele>
        <time>2025-02-26T12:31:09Z</time>
      </trkpt>
      <trkpt lat="47.82718" lon="3.57829">
        <ele>95.2</ele>
        <time>2025-02-26T12:31:16Z</time>
      </trkpt>
      <trkpt lat="47.82733" lon="3.57827">
        <ele>95.2</ele>
        <time>2025-02-26T12:31:34Z</time>
      </trkpt>
      <trkpt lat="47.82749" lon="3.57824">
        <ele>95.3</ele>
        <time>2025-02-26T12:31:36Z</time>
      </trkpt>
      <trkpt lat="47.82763" lon="3.57823">
        <ele>95.7</ele>
        <time>2025-02-26T12:31:45Z</time>
      </trkpt>
      <trkpt lat="47.82789" lon="3.57819">
        <ele>95.6</ele>
        <time>2025-02-26T12:32:04Z</time>
      </trkpt>
      <trkpt lat="47.82807" lon="3.57817">
        <ele>95</ele>
        <time>2025-02-26T12:32:13Z</time>
      </trkpt>
      <trkpt lat="47.82817" lon="3.57816">
        <ele>95</ele>
        <time>2025-02-26T12:32:17Z</time>
      </trkpt>
      <trkpt lat="47.82838" lon="3.57813">
        <ele>95</ele>
        <time>2025-02-26T12:32:27Z</time>
      </trkpt>
      <trkpt lat="47.82859" lon="3.57809">
        <ele>95</ele>
        <time>2025-02-26T12:32:35Z</time>
      </trkpt>
      <trkpt lat="47.82889" lon="3.57805">
        <ele>95</ele>
        <time>2025-02-26T12:32:44Z</time>
      </trkpt>
      <trkpt lat="47.82916" lon="3.57801">
        <ele>95</ele>
        <time>2025-02-26T12:32:55Z</time>
      </trkpt>
      <trkpt lat="47.82943" lon="3.57797">
        <ele>95</ele>
        <time>2025-02-26T12:33:10Z</time>
      </trkpt>
      <trkpt lat="47.82971" lon="3.57793">
        <ele>95.5</ele>
        <time>2025-02-26T12:33:18Z</time>
      </trkpt>
      <trkpt lat="47.82993" lon="3.5779">
        <ele>95.5</ele>
        <time>2025-02-26T12:33:25Z</time>
      </trkpt>
      <trkpt lat="47.83008" lon="3.57788">
        <ele>95.4</ele>
        <time>2025-02-26T12:33:28Z</time>
      </trkpt>
      <trkpt lat="47.83019" lon="3.57788">
        <ele>95.4</ele>
        <time>2025-02-26T12:33:43Z</time>
      </trkpt>
      <trkpt lat="47.83028" lon="3.57788">
        <ele>95.4</ele>
        <time>2025-02-26T12:33:51Z</time>
      </trkpt>
      <trkpt lat="47.83029" lon="3.57838">
        <ele>96</ele>
        <time>2025-02-26T12:34:07Z</time>
      </trkpt>
      <trkpt lat="47.8303" lon="3.57881">
        <ele>96</ele>
        <time>2025-02-26T12:34:13Z</time>
      </trkpt>
      <trkpt lat="47.83031" lon="3.57896">
        <ele>96</ele>
        <time>2025-02-26T12:34:17Z</time>
      </trkpt>
      <trkpt lat="47.83031" lon="3.57907">
        <ele>96</ele>
        <time>2025-02-26T12:34:34Z</time>
      </trkpt>
      <trkpt lat="47.83032" lon="3.57957">
        <ele>96</ele>
        <time>2025-02-26T12:34:47Z</time>
      </trkpt>
      <trkpt lat="47.83033" lon="3.57982">
        <ele>96</ele>
        <time>2025-02-26T12:35:01Z</time>
      </trkpt>
      <trkpt lat="47.83038" lon="3.57981">
        <ele>96</ele>
        <time>2025-02-26T12:35:08Z</time>
      </trkpt>
      <trkpt lat="47.8305" lon="3.5798">
        <ele>96</ele>
        <time>2025-02-26T12:35:14Z</time>
      </trkpt>
      <trkpt lat="47.83059" lon="3.5798">
        <ele>96</ele>
        <time>2025-02-26T12:35:29Z</time>
      </trkpt>
      <trkpt lat="47.83085" lon="3.57977">
        <ele>96</ele>
        <time>2025-02-26T12:35:48Z</time>
      </trkpt>
      <trkpt lat="47.83099" lon="3.57975">
        <ele>96.1</ele>
        <time>2025-02-26T12:35:55Z</time>
      </trkpt>
      <trkpt lat="47.8313" lon="3.57972">
        <ele>96</ele>
        <time>2025-02-26T12:36:15Z</time>
      </trkpt>
      <trkpt lat="47.83156" lon="3.57969">
        <ele>96</ele>
        <time>2025-02-26T12:36:21Z</time>
      </trkpt>
      <trkpt lat="47.83182" lon="3.57967">
        <ele>96</ele>
        <time>2025-02-26T12:36:32Z</time>
      </trkpt>
      <trkpt lat="47.832" lon="3.57964">
        <ele>96</ele>
        <time>2025-02-26T12:36:35Z</time>
      </trkpt>
      <trkpt lat="47.83205" lon="3.57973">
        <ele>96</ele>
        <time>2025-02-26T12:36:38Z</time>
      </trkpt>
      <trkpt lat="47.83223" lon="3.58019">
        <ele>96</ele>
        <time>2025-02-26T12:36:55Z</time>
      </trkpt>
      <trkpt lat="47.83224" lon="3.58019">
        <ele>96</ele>
        <time>2025-02-26T12:37:14Z</time>
      </trkpt>
      <trkpt lat="47.8323" lon="3.58016">
        <ele>96</ele>
        <time>2025-02-26T12:37:23Z</time>
      </trkpt>
      <trkpt lat="47.83237" lon="3.58018">
        <ele>96</ele>
        <time>2025-02-26T12:37:38Z</time>
      </trkpt>
      <trkpt lat="47.83242" lon="3.58024">
        <ele>96</ele>
        <time>2025-02-26T12:37:54Z</time>
      </trkpt>
      <trkpt lat="47.83248" lon="3.58019">
        <ele>96</ele>
        <time>2025-02-26T12:38:04Z</time>
      </trkpt>
      <trkpt lat="47.83257" lon="3.58013">
        <ele>96</ele>
        <time>2025-02-26T12:38:14Z</time>
      </trkpt>
      <trkpt lat="47.83274" lon="3.58012">
        <ele>96</ele>
        <time>2025-02-26T12:38:31Z</time>
      </trkpt>
      <trkpt lat="47.83311" lon="3.58012">
        <ele>95.5</ele>
        <time>2025-02-26T12:38:45Z</time>
      </trkpt>
      <trkpt lat="47.83316" lon="3.58012">
        <ele>95.5</ele>
        <time>2025-02-26T12:38:59Z</time>
      </trkpt>
      <trkpt lat="47.83327" lon="3.58012">
        <ele>95.5</ele>
        <time>2025-02-26T12:39:09Z</time>
      </trkpt>
      <trkpt lat="47.83341" lon="3.58012">
        <ele>95.7</ele>
        <time>2025-02-26T12:39:26Z</time>
      </trkpt>
      <trkpt lat="47.8336" lon="3.58012">
        <ele>96.1</ele>
        <time>2025-02-26T12:39:32Z</time>
      </trkpt>
      <trkpt lat="47.83365" lon="3.58012">
        <ele>96</ele>
        <time>2025-02-26T12:39:47Z</time>
      </trkpt>
      <trkpt lat="47.83378" lon="3.58013">
        <ele>95.8</ele>
        <time>2025-02-26T12:39:56Z</time>
      </trkpt>
      <trkpt lat="47.83395" lon="3.58013">
        <ele>95.7</ele>
        <time>2025-02-26T12:40:00Z</time>
      </trkpt>
      <trkpt lat="47.83421" lon="3.58014">
        <ele>96.6</ele>
        <time>2025-02-26T12:40:04Z</time>
      </trkpt>
      <trkpt lat="47.83431" lon="3.58013">
        <ele>96.8</ele>
        <time>2025-02-26T12:40:24Z</time>
      </trkpt>
      <trkpt lat="47.8345" lon="3.58014">
        <ele>96.7</ele>
        <time>2025-02-26T12:40:33Z</time>
      </trkpt>
      <trkpt lat="47.83464" lon="3.58014">
        <ele>95.9</ele>
        <time>2025-02-26T12:40:45Z</time>
      </trkpt>
      <trkpt lat="47.8347" lon="3.58014">
        <ele>95.6</ele>
        <time>2025-02-26T12:41:03Z</time>
      </trkpt>
      <trkpt lat="47.83477" lon="3.58014">
        <ele>95.6</ele>
        <time>2025-02-26T12:41:12Z</time>
      </trkpt>
      <trkpt lat="47.835" lon="3.58009">
        <ele>96</ele>
        <time>2025-02-26T12:41:27Z</time>
      </trkpt>
      <trkpt lat="47.83518" lon="3.58006">
        <ele>96</ele>
        <time>2025-02-26T12:41:45Z</time>
      </trkpt>
      <trkpt lat="47.83558" lon="3.57997">
        <ele>96.1</ele>
        <time>2025-02-26T12:41:48Z</time>
      </trkpt>
      <trkpt lat="47.83576" lon="3.57994">
        <ele>96.7</ele>
        <time>2025-02-26T12:42:04Z</time>
      </trkpt>
      <trkpt lat="47.83604" lon="3.57988">
        <ele>97</ele>
        <time>2025-02-26T12:42:20Z</time>
      </trkpt>
      <trkpt lat="47.83635" lon="3.57982">
        <ele>96.4</ele>
        <time>2025-02-26T12:42:38Z</time>
      </trkpt>
      <trkpt lat="47.83649" lon="3.5798">
        <ele>96.2</ele>
        <time>2025-02-26T12:42:47Z</time>
      </trkpt>
      <trkpt lat="47.83652" lon="3.58003">
        <ele>96.5</ele>
        <time>2025-02-26T12:42:49Z</time>
      </trkpt>
      <trkpt lat="47.83655" lon="3.58024">
        <ele>96.4</ele>
        <time>2025-02-26T12:42:52Z</time>
      </trkpt>
      <trkpt lat="47.83655" lon="3.58033">
        <ele>96.4</ele>
        <time>2025-02-26T12:42:56Z</time>
      </trkpt>
      <trkpt lat="47.83664" lon="3.58102">
        <ele>96</ele>
        <time>2025-02-26T12:42:59Z</time>
      </trkpt>
      <trkpt lat="47.83661" lon="3.58108">
        <ele>96</ele>
        <time>2025-02-26T12:43:19Z</time>
      </trkpt>
      <trkpt lat="47.83656" lon="3.58123">
        <ele>96.3</ele>
        <time>2025-02-26T12:43:35Z</time>
      </trkpt>
      <trkpt lat="47.83658" lon="3.5814">
        <ele>96.7</ele>
        <time>2025-02-26T12:43:48Z</time>
      </trkpt>
      <trkpt lat="47.83669" lon="3.58149">
        <ele>96.6</ele>
        <time>2025-02-26T12:44:03Z</time>
      </trkpt>
      <trkpt lat="47.83676" lon="3.5815">
        <ele>96.4</ele>
        <time>2025-02-26T12:44:20Z</time>
      </trkpt>
      <trkpt lat="47.83681" lon="3.58147">
        <ele>96.3</ele>
        <time>2025-02-26T12:44:25Z</time>
      </trkpt>
      <trkpt lat="47.83684" lon="3.58144">
        <ele>96.3</ele>
        <time>2025-02-26T12:44:27Z</time>
      </trkpt>
      <trkpt lat="47.83686" lon="3.5814">
        <ele>96.3</ele>
        <time>2025-02-26T12:44:38Z</time>
      </trkpt>
      <trkpt lat="47.83688" lon="3.58137">
        <ele>96.2</ele>
        <time>2025-02-26T12:44:45Z</time>
      </trkpt>
      <trkpt lat="47.83691" lon="3.58136">
        <ele>96.1</ele>
        <time>2025-02-26T12:44:57Z</time>
      </trkpt>
      <trkpt lat="47.83701" lon="3.58132">
        <ele>96</ele>
        <time>2025-02-26T12:44:59Z</time>
      </trkpt>
      <trkpt lat="47.83711" lon="3.5813">
        <ele>96</ele>
        <time>2025-02-26T12:45:01Z</time>
      </trkpt>
      <trkpt lat="47.83725" lon="3.58127">
        <ele>96</ele>
        <time>2025-02-26T12:45:11Z</time>
      </trkpt>
      <trkpt lat="47.83742" lon="3.58124">
        <ele>96</ele>
        <time>2025-02-26T12:45:31Z</time>
      </trkpt>
      <trkpt lat="47.83747" lon="3.58122">
        <ele>96</ele>
        <time>2025-02-26T12:45:35Z</time>
      </trkpt>
      <trkpt lat="47.8375" lon="3.58121">
        <ele>96</ele>
        <time>2025-02-26T12:45:51Z</time>
      </trkpt>
      <trkpt lat="47.83762" lon="3.58119">
        <ele>96</ele>
        <time>2025-02-26T12:46:06Z</time>
      </trkpt>
      <trkpt lat="47.83781" lon="3.58116">
        <ele>96</ele>
        <time>2025-02-26T12:46:14Z</time>
      </trkpt>
      <trkpt lat="47.838" lon="3.58113">
        <ele>96</ele>
        <time>2025-02-26T12:46:31Z</time>
      </trkpt>
      <trkpt lat="47.83808" lon="3.58112">
        <ele>96</ele>
        <time>2025-02-26T12:46:47Z</time>
      </trkpt>
      <trkpt lat="47.8383" lon="3.58107">
        <ele>96</ele>
        <time>2025-02-26T12:47:04Z</time>
      </trkpt>
      <trkpt lat="47.83854" lon="3.58102">
        <ele>96</ele>
        <time>2025-02-26T12:47:11Z</time>
      </trkpt>
      <trkpt lat="47.83881" lon="3.58096">
        <ele>95.7</ele>
        <time>2025-02-26T12:47:30Z</time>
      </trkpt>
      <trkpt lat="47.8389" lon="3.58094">
        <ele>95.6</ele>
        <time>2025-02-26T12:47:34Z</time>
      </trkpt>
      <trkpt lat="47.83899" lon="3.58093">
        <ele>95.7</ele>
        <time>2025-02-26T12:47:50Z</time>
      </trkpt>
      <trkpt lat="47.83903" lon="3.58093">
        <ele>95.7</ele>
        <time>2025-02-26T12:48:00Z</time>
      </trkpt>
      <trkpt lat="47.83908" lon="3.58091">
        <ele>95.7</ele>
        <time>2025-02-26T12:48:02Z</time>
      </trkpt>
      <trkpt lat="47.83927" lon="3.58087">
        <ele>95.9</ele>
        <time>2025-02-26T12:48:18Z</time>
      </trkpt>
      <trkpt lat="47.83945" lon="3.58083">
        <ele>96</ele>
        <time>2025-02-26T12:48:22Z</time>
      </trkpt>
      <trkpt lat="47.83972" lon="3.58078">
        <ele>95</ele>
        <time>2025-02-26T12:48:30Z</time>
      </trkpt>
      <trkpt lat="47.83999" lon="3.58072">
        <ele>95</ele>
        <time>2025-02-26T12:48:38Z</time>
      </trkpt>
      <trkpt lat="47.84026" lon="3.58067">
        <ele>96</ele>
        <time>2025-02-26T12:48:47Z</time>
      </trkpt>
      <trkpt lat="47.84054" lon="3.58062">
        <ele>96</ele>
        <time>2025-02-26T12:48:51Z</time>
      </trkpt>
      <trkpt lat="47.84063" lon="3.5806">
        <ele>96</ele>
        <time>2025-02-26T12:49:06Z</time>
      </trkpt>
      <trkpt lat="47.84081" lon="3.58057">
        <ele>96</ele>
        <time>2025-02-26T12:49:12Z</time>
      </trkpt>
      <trkpt lat="47.84088" lon="3.58055">
        <ele>96</ele>
        <time>2025-02-26T12:49:17Z</time>
      </trkpt>
      <trkpt lat="47.84102" lon="3.58052">
        <ele>95.9</ele>
        <time>2025-02-26T12:49:33Z</time>
      </trkpt>
      <trkpt lat="47.84126" lon="3.58047">
        <ele>95.3</ele>
        <time>2025-02-26T12:49:46Z</time>
      </trkpt>
      <trkpt lat="47.84143" lon="3.58044">
        <ele>95</ele>
        <time>2025-02-26T12:50:04Z</time>
      </trkpt>
      <trkpt lat="47.84154" lon="3.58041">
        <ele>95</ele>
        <time>2025-02-26T12:50:18Z</time>
      </trkpt>
      <trkpt lat="47.84157" lon="3.58041">
        <ele>95</ele>
        <time>2025-02-26T12:50:33Z</time>
      </trkpt>
      <trkpt lat="47.84169" lon="3.58036">
        <ele>95</ele>
        <time>2025-02-26T12:50:44Z</time>
      </trkpt>
      <trkpt lat="47.84176" lon="3.58032">
        <ele>95.3</ele>
        <time>2025-02-26T12:51:00Z</time>
      </trkpt>
      <trkpt lat="47.84188" lon="3.58032">
        <ele>95.6</ele>
        <time>2025-02-26T12:51:13Z</time>
      </trkpt>
      <trkpt lat="47.84186" lon="3.58038">
        <ele>95.4</ele>
        <time>2025-02-26T12:51:22Z</time>
      </trkpt>
      <trkpt lat="47.84186" lon="3.58044">
        <ele>95.3</ele>
        <time>2025-02-26T12:51:26Z</time>
      </trkpt>
      <trkpt lat="47.84185" lon="3.58051">
        <ele>95.1</ele>
        <time>2025-02-26T12:51:29Z</time>
      </trkpt>
      <trkpt lat="47.84183" lon="3.58059">
        <ele>95</ele>
        <time>2025-02-26T12:51:39Z</time>
      </trkpt>
      <trkpt lat="47.84181" lon="3.58069">
        <ele>95</ele>
        <time>2025-02-26T12:51:46Z</time>
      </trkpt>
      <trkpt lat="47.84179" lon="3.58079">
        <ele>95</ele>
        <time>2025-02-26T12:51:53Z</time>
      </trkpt>
      <trkpt lat="47.84178" lon="3.58087">
        <ele>95.1</ele>
        <time>2025-02-26T12:52:08Z</time>
      </trkpt>
      <trkpt lat="47.84177" lon="3.58097">
        <ele>95.2</ele>
        <time>2025-02-26T12:52:15Z</time>
      </trkpt>
      <trkpt lat="47.84176" lon="3.58108">
        <ele>95.3</ele>
        <time>2025-02-26T12:52:35Z</time>
      </trkpt>
      <trkpt lat="47.84176" lon="3.58114">
        <ele>95.4</ele>
        <time>2025-02-26T12:52:50Z</time>
      </trkpt>
      <trkpt lat="47.84176" lon="3.58129">
        <ele>95.8</ele>
        <time>2025-02-26T12:52:57Z</time>
      </trkpt>
      <trkpt lat="47.84176" lon="3.58176">
        <ele>96.2</ele>
        <time>2025-02-26T12:53:01Z</time>
      </trkpt>
      <trkpt lat="47.84177" lon="3.58204">
        <ele>95.5</ele>
        <time>2025-02-26T12:53:12Z</time>
      </trkpt>
      <trkpt lat="47.84178" lon="3.58216">
        <ele>95.6</ele>
        <time>2025-02-26T12:53:29Z</time>
      </trkpt>
      <trkpt lat="47.84179" lon="3.58224">
        <ele>95.6</ele>
        <time>2025-02-26T12:53:35Z</time>
      </trkpt>
      <trkpt lat="47.84179" lon="3.58227">
        <ele>95.6</ele>
        <time>2025-02-26T12:53:40Z</time>
      </trkpt>
      <trkpt lat="47.84178" lon="3.58231">
        <ele>95.7</ele>
        <time>2025-02-26T12:53:52Z</time>
      </trkpt>
      <trkpt lat="47.84177" lon="3.58236">
        <ele>95.8</ele>
        <time>2025-02-26T12:53:55Z</time>
      </trkpt>
      <trkpt lat="47.84177" lon="3.58243">
        <ele>95.9</ele>
        <time>2025-02-26T12:54:11Z</time>
      </trkpt>
      <trkpt lat="47.84178" lon="3.58285">
        <ele>97.1</ele>
        <time>2025-02-26T12:54:22Z</time>
      </trkpt>
      <trkpt lat="47.84179" lon="3.58296">
        <ele>96.5</ele>
        <time>2025-02-26T12:54:38Z</time>
      </trkpt>
      <trkpt lat="47.84179" lon="3.583">
        <ele>96.3</ele>
        <time>2025-02-26T12:54:49Z</time>
      </trkpt>
      <trkpt lat="47.84178" lon="3.58332">
        <ele>96.4</ele>
        <time>2025-02-26T12:55:02Z</time>
      </trkpt>
      <trkpt lat="47.84177" lon="3.58375">
        <ele>97.5</ele>
        <time>2025-02-26T12:55:16Z</time>
      </trkpt>
      <trkpt lat="47.84177" lon="3.58392">
        <ele>98</ele>
        <time>2025-02-26T12:55:21Z</time>
      </trkpt>
      <trkpt lat="47.84177" lon="3.58408">
        <ele>98</ele>
        <time>2025-02-26T12:55:40Z</time>
      </trkpt>
      <trkpt lat="47.84181" lon="3.58405">
        <ele>98</ele>
        <time>2025-02-26T12:55:48Z</time>
      </trkpt>
      <trkpt lat="47.84196" lon="3.58401">
        <ele>98</ele>
        <time>2025-02-26T12:56:00Z</time>
      </trkpt>
      <trkpt lat="47.84211" lon="3.58395">
        <ele>98</ele>
        <time>2025-02-26T12:56:20Z</time>
      </trkpt>
      <trkpt lat="47.84219" lon="3.58392">
        <ele>98</ele>
        <time>2025-02-26T12:56:30Z</time>
      </trkpt>
      <trkpt lat="47.84233" lon="3.58384">
        <ele>97.9</ele>
        <time>2025-02-26T12:56:32Z</time>
      </trkpt>
      <trkpt lat="47.84251" lon="3.58375">
        <ele>98</ele>
        <time>2025-02-26T12:56:43Z</time>
      </trkpt>
      <trkpt lat="47.84261" lon="3.5837">
        <ele>98</ele>
        <time>2025-02-26T12:56:56Z</time>
      </trkpt>
      <trkpt lat="47.84279" lon="3.58361">
        <ele>98</ele>
        <time>2025-02-26T12:57:12Z</time>
      </trkpt>
      <trkpt lat="47.84295" lon="3.58349">
        <ele>97.8</ele>
        <time>2025-02-26T12:57:31Z</time>
      </trkpt>
      <trkpt lat="47.8432" lon="3.58329">
        <ele>97.9</ele>
        <time>2025-02-26T12:57:39Z</time>
      </trkpt>
      <trkpt lat="47.8434" lon="3.58315">
        <ele>98.1</ele>
        <time>2025-02-26T12:57:59Z</time>
      </trkpt>
      <trkpt lat="47.84343" lon="3.58313">
        <ele>98.1</ele>
        <time>2025-02-26T12:58:03Z</time>
      </trkpt>
      <trkpt lat="47.84361" lon="3.58303">
        <ele>97.9</ele>
        <time>2025-02-26T12:58:07Z</time>
      </trkpt>
      <trkpt lat="47.84381" lon="3.58292">
        <ele>98.2</ele>
        <time>2025-02-26T12:58:19Z</time>
      </trkpt>
      <trkpt lat="47.84395" lon="3.58286">
        <ele>98.4</ele>
        <time>2025-02-26T12:58:28Z</time>
      </trkpt>
      <trkpt lat="47.84416" lon="3.58277">
        <ele>98.9</ele>
        <time>2025-02-26T12:58:40Z</time>
      </trkpt>
      <trkpt lat="47.84428" lon="3.58272">
        <ele>98.8</ele>
        <time>2025-02-26T12:58:58Z</time>
      </trkpt>
      <trkpt lat="47.84434" lon="3.58269">
        <ele>98.7</ele>
        <time>2025-02-26T12:59:08Z</time>
      </trkpt>
      <trkpt lat="47.84437" lon="3.58268">
        <ele>98.7</ele>
        <time>2025-02-26T12:59:26Z</time>
      </trkpt>
      <trkpt lat="47.84439" lon="3.58268">
        <ele>98.6</ele>
        <time>2025-02-26T12:59:35Z</time>
      </trkpt>
      <trkpt lat="47.8444" lon="3.58268">
        <ele>98.6</ele>
        <time>2025-02-26T12:59:43Z</time>
      </trkpt>
      <trkpt lat="47.84442" lon="3.58268">
        <ele>98.6</ele>
        <time>2025-02-26T12:59:55Z</time>
      </trkpt>
      <trkpt lat="47.84444" lon="3.58268">
        <ele>98.6</ele>
        <time>2025-02-26T13:00:03Z</time>
      </trkpt>
      <trkpt lat="47.84466" lon="3.58261">
        <ele>98.9</ele>
        <time>2025-02-26T13:00:06Z</time>
      </trkpt>
      <trkpt lat="47.84482" lon="3.58256">
        <ele>99.1</ele>
        <time>2025-02-26T13:00:23Z</time>
      </trkpt>
      <trkpt lat="47.84487" lon="3.58253">
        <ele>99.1</ele>
        <time>2025-02-26T13:00:38Z</time>
      </trkpt>
      <trkpt lat="47.84491" lon="3.58251">
        <ele>99</ele>
        <time>2025-02-26T13:00:50Z</time>
      </trkpt>
      <trkpt lat="47.84504" lon="3.58247">
        <ele>98.9</ele>
        <time>2025-02-26T13:00:58Z</time>
      </trkpt>
      <trkpt lat="47.84507" lon="3.58247">
        <ele>98.9</ele>
        <time>2025-02-26T13:01:03Z</time>
      </trkpt>
      <trkpt lat="47.84511" lon="3.58246">
        <ele>98.9</ele>
        <time>2025-02-26T13:01:13Z</time>
      </trkpt>
      <trkpt lat="47.84528" lon="3.58242">
        <ele>99</ele>
        <time>2025-02-26T13:01:15Z</time>
      </trkpt>
      <trkpt lat="47.84535" lon="3.5824">
        <ele>99.2</ele>
        <time>2025-02-26T13:01:17Z</time>
      </trkpt>
      <trkpt lat="47.84551" lon="3.58233">
        <ele>99.3</ele>
        <time>2025-02-26T13:01:37Z</time>
      </trkpt>
      <trkpt lat="47.8457" lon="3.58223">
        <ele>99.5</ele>
        <time>2025-02-26T13:01:48Z</time>
      </trkpt>
      <trkpt lat="47.84584" lon="3.58215">
        <ele>99.7</ele>
        <time>2025-02-26T13:02:03Z</time>
      </trkpt>
      <trkpt lat="47.8459" lon="3.58211">
        <ele>99.6</ele>
        <time>2025-02-26T13:02:11Z</time>
      </trkpt>
      <trkpt lat="47.84594" lon="3.5821">
        <ele>99.5</ele>
        <time>2025-02-26T13:02:25Z</time>
      </trkpt>
      <trkpt lat="47.84597" lon="3.58208">
        <ele>99.5</ele>
        <time>2025-02-26T13:02:32Z</time>
      </trkpt>
      <trkpt lat="47.84598" lon="3.58195">
        <ele>99</ele>
        <time>2025-02-26T13:02:48Z</time>
      </trkpt>
      <trkpt lat="47.84604" lon="3.5819">
        <ele>99.1</ele>
        <time>2025-02-26T13:02:58Z</time>
      </trkpt>
      <trkpt lat="47.84605" lon="3.5819">
        <ele>99.1</ele>
        <time>2025-02-26T13:03:12Z</time>
      </trkpt>
      <trkpt lat="47.84612" lon="3.58189">
        <ele>99.2</ele>
        <time>2025-02-26T13:03:32Z</time>
      </trkpt>
      <trkpt lat="47.84619" lon="3.58186">
        <ele>99.1</ele>
        <time>2025-02-26T13:03:37Z</time>
      </trkpt>
      <trkpt lat="47.8464" lon="3.58176">
        <ele>99.3</ele>
        <time>2025-02-26T13:03:46Z</time>
      </trkpt>
      <trkpt lat="47.84656" lon="3.58171">
        <ele>99.3</ele>
        <time>2025-02-26T13:04:03Z</time>
      </trkpt>
      <trkpt lat="47.84673" lon="3.58166">
        <ele>99</ele>
        <time>2025-02-26T13:04:07Z</time>
      </trkpt>
      <trkpt lat="47.84685" lon="3.58162">
        <ele>99.1</ele>
        <time>2025-02-26T13:04:23Z</time>
      </trkpt>
      <trkpt lat="47.84693" lon="3.5816">
        <ele>99</ele>
        <time>2025-02-26T13:04:25Z</time>
      </trkpt>
      <trkpt lat="47.8471" lon="3.58154">
        <ele>99.9</ele>
        <time>2025-02-26T13:04:45Z</time>
      </trkpt>
      <trkpt lat="47.84721" lon="3.5815">
        <ele>100.3</ele>
        <time>2025-02-26T13:04:58Z</time>
      </trkpt>
      <trkpt lat="47.84741" lon="3.58144">
        <ele>100.8</ele>
        <time>2025-02-26T13:05:04Z</time>
      </trkpt>
      <trkpt lat="47.84748" lon="3.58142">
        <ele>101</ele>
        <time>2025-02-26T13:05:20Z</time>
      </trkpt>
      <trkpt lat="47.84759" lon="3.58139">
        <ele>101.3</ele>
        <time>2025-02-26T13:05:23Z</time>
      </trkpt>
      <trkpt lat="47.84768" lon="3.58137">
        <ele>101.6</ele>
        <time>2025-02-26T13:05:28Z</time>
      </trkpt>
      <trkpt lat="47.8478" lon="3.58135">
        <ele>101.9</ele>
        <time>2025-02-26T13:05:34Z</time>
      </trkpt>
      <trkpt lat="47.8479" lon="3.58133">
        <ele>102.2</ele>
        <time>2025-02-26T13:05:51Z</time>
      </trkpt>
      <trkpt lat="47.84808" lon="3.58131">
        <ele>102.8</ele>
        <time>2025-02-26T13:05:53Z</time>
      </trkpt>
      <trkpt lat="47.84813" lon="3.5813">
        <ele>103</ele>
        <time>2025-02-26T13:06:06Z</time>
      </trkpt>
      <trkpt lat="47.84823" lon="3.58128">
        <ele>103.5</ele>
        <time>2025-02-26T13:06:08Z</time>
      </trkpt>
      <trkpt lat="47.8484" lon="3.58125">
        <ele>104.2</ele>
        <time>2025-02-26T13:06:20Z</time>
      </trkpt>
      <trkpt lat="47.84856" lon="3.5812">
        <ele>104.8</ele>
        <time>2025-02-26T13:06:25Z</time>
      </trkpt>
      <trkpt lat="47.84876" lon="3.58113">
        <ele>105.1</ele>
        <time>2025-02-26T13:06:43Z</time>
      </trkpt>
      <trkpt lat="47.8489" lon="3.58107">
        <ele>105</ele>
        <time>2025-02-26T13:06:47Z</time>
      </trkpt>
      <trkpt lat="47.84908" lon="3.58105">
        <ele>105.4</ele>
        <time>2025-02-26T13:07:03Z</time>
      </trkpt>
      <trkpt lat="47.84912" lon="3.58101">
        <ele>105.2</ele>
        <time>2025-02-26T13:07:11Z</time>
      </trkpt>
      <trkpt lat="47.84916" lon="3.58099">
        <ele>105.1</ele>
        <time>2025-02-26T13:07:30Z</time>
      </trkpt>
      <trkpt lat="47.8493" lon="3.58097">
        <ele>105.7</ele>
        <time>2025-02-26T13:07:50Z</time>
      </trkpt>
      <trkpt lat="47.84949" lon="3.58098">
        <ele>106.6</ele>
        <time>2025-02-26T13:08:00Z</time>
      </trkpt>
      <trkpt lat="47.84969" lon="3.58099">
        <ele>107.1</ele>
        <time>2025-02-26T13:08:04Z</time>
      </trkpt>
      <trkpt lat="47.84987" lon="3.58101">
        <ele>107.7</ele>
        <time>2025-02-26T13:08:17Z</time>
      </trkpt>
      <trkpt lat="47.85001" lon="3.58102">
        <ele>108</ele>
        <time>2025-02-26T13:08:32Z</time>
      </trkpt>
      <trkpt lat="47.85006" lon="3.58098">
        <ele>107.8</ele>
        <time>2025-02-26T13:08:43Z</time>
      </trkpt>
      <trkpt lat="47.85011" lon="3.58096">
        <ele>107.6</ele>
        <time>2025-02-26T13:08:55Z</time>
      </trkpt>
      <trkpt lat="47.85019" lon="3.58092">
        <ele>107.1</ele>
        <time>2025-02-26T13:09:09Z</time>
      </trkpt>
      <trkpt lat="47.85025" lon="3.58091">
        <ele>106.7</ele>
        <time>2025-02-26T13:09:20Z</time>
      </trkpt>
      <trkpt lat="47.8503" lon="3.5809">
        <ele>106.6</ele>
        <time>2025-02-26T13:09:34Z</time>
      </trkpt>
      <trkpt lat="47.85029" lon="3.58044">
        <ele>104.6</ele>
        <time>2025-02-26T13:09:47Z</time>
      </trkpt>
      <trkpt lat="47.85029" lon="3.58026">
        <ele>103.9</ele>
        <time>2025-02-26T13:09:56Z</time>
      </trkpt>
      <trkpt lat="47.85034" lon="3.58026">
        <ele>103.9</ele>
        <time>2025-02-26T13:10:14Z</time>
      </trkpt>
      <trkpt lat="47.85051" lon="3.58027">
        <ele>104</ele>
        <time>2025-02-26T13:10:21Z</time>
      </trkpt>
      <trkpt lat="47.85058" lon="3.58027">
        <ele>104</ele>
        <time>2025-02-26T13:10:25Z</time>
      </trkpt>
      <trkpt lat="47.85084" lon="3.58026">
        <ele>104.9</ele>
        <time>2025-02-26T13:10:44Z</time>
      </trkpt>
      <trkpt lat="47.85111" lon="3.58026">
        <ele>104.9</ele>
        <time>2025-02-26T13:10:48Z</time>
      </trkpt>
      <trkpt lat="47.85127" lon="3.58026">
        <ele>104.8</ele>
        <time>2025-02-26T13:10:52Z</time>
      </trkpt>
      <trkpt lat="47.85144" lon="3.58026">
        <ele>104.8</ele>
        <time>2025-02-26T13:11:02Z</time>
      </trkpt>
      <trkpt lat="47.85155" lon="3.58025">
        <ele>104.8</ele>
        <time>2025-02-26T13:11:11Z</time>
      </trkpt>
      <trkpt lat="47.85161" lon="3.58024">
        <ele>104.7</ele>
        <time>2025-02-26T13:11:24Z</time>
      </trkpt>
      <trkpt lat="47.85176" lon="3.58024">
        <ele>104.7</ele>
        <time>2025-02-26T13:11:44Z</time>
      </trkpt>
      <trkpt lat="47.85196" lon="3.58025">
        <ele>104.8</ele>
        <time>2025-02-26T13:11:59Z</time>
      </trkpt>
      <trkpt lat="47.85215" lon="3.58027">
        <ele>104.9</ele>
        <time>2025-02-26T13:12:04Z</time>
      </trkpt>
      <trkpt lat="47.85222" lon="3.58028">
        <ele>105</ele>
        <time>2025-02-26T13:12:22Z</time>
      </trkpt>
      <trkpt lat="47.8524" lon="3.5803">
        <ele>105.2</ele>
        <time>2025-02-26T13:12:28Z</time>
      </trkpt>
      <trkpt lat="47.85256" lon="3.58032">
        <ele>105.3</ele>
        <time>2025-02-26T13:12:41Z</time>
      </trkpt>
      <trkpt lat="47.8527" lon="3.58033">
        <ele>105.4</ele>
        <time>2025-02-26T13:12:56Z</time>
      </trkpt>
      <trkpt lat="47.85287" lon="3.58035">
        <ele>105.2</ele>
        <time>2025-02-26T13:13:00Z</time>
      </trkpt>
      <trkpt lat="47.85302" lon="3.58035">
        <ele>104.6</ele>
        <time>2025-02-26T13:13:19Z</time>
      </trkpt>
      <trkpt lat="47.85316" lon="3.58035">
        <ele>104</ele>
        <time>2025-02-26T13:13:32Z</time>
      </trkpt>
      <trkpt lat="47.85337" lon="3.58036">
        <ele>103.1</ele>
        <time>2025-02-26T13:13:48Z</time>
      </trkpt>
      <trkpt lat="47.85354" lon="3.58037">
        <ele>102.6</ele>
        <time>2025-02-26T13:13:55Z</time>
      </trkpt>
      <trkpt lat="47.85371" lon="3.58039">
        <ele>101.9</ele>
        <time>2025-02-26T13:14:00Z</time>
      </trkpt>
      <trkpt lat="47.85382" lon="3.5804">
        <ele>101.4</ele>
        <time>2025-02-26T13:14:16Z</time>
      </trkpt>
      <trkpt lat="47.85389" lon="3.58042">
        <ele>101</ele>
        <time>2025-02-26T13:14:19Z</time>
      </trkpt>
      <trkpt lat="47.85388" lon="3.5803">
        <ele>101</ele>
        <time>2025-02-26T13:14:37Z</time>
      </trkpt>
      <trkpt lat="47.85386" lon="3.57993">
        <ele>100.5</ele>
        <time>2025-02-26T13:14:44Z</time>
      </trkpt>
      <trkpt lat="47.85385" lon="3.57971">
        <ele>99.1</ele>
        <time>2025-02-26T13:14:54Z</time>
      </trkpt>
      <trkpt lat="47.85385" lon="3.57965">
        <ele>99.1</ele>
        <time>2025-02-26T13:15:01Z</time>
      </trkpt>
      <trkpt lat="47.85385" lon="3.57952">
        <ele>99</ele>
        <time>2025-02-26T13:15:13Z</time>
      </trkpt>
      <trkpt lat="47.85385" lon="3.5794">
        <ele>98.9</ele>
        <time>2025-02-26T13:15:32Z</time>
      </trkpt>
      <trkpt lat="47.85394" lon="3.57939">
        <ele>98.8</ele>
        <time>2025-02-26T13:15:51Z</time>
      </trkpt>
      <trkpt lat="47.8541" lon="3.57937">
        <ele>98.7</ele>
        <time>2025-02-26T13:15:53Z</time>
      </trkpt>
      <trkpt lat="47.85437" lon="3.57933">
        <ele>98.1</ele>
        <time>2025-02-26T13:16:07Z</time>
      </trkpt>
      <trkpt lat="47.85457" lon="3.57931">
        <ele>97.8</ele>
        <time>2025-02-26T13:16:17Z</time>
      </trkpt>
      <trkpt lat="47.85456" lon="3.57893">
        <ele>96.7</ele>
        <time>2025-02-26T13:16:31Z</time>
      </trkpt>
      <trkpt lat="47.85456" lon="3.57879">
        <ele>96.4</ele>
        <time>2025-02-26T13:16:38Z</time>
      </trkpt>
      <trkpt lat="47.85454" lon="3.57845">
        <ele>96</ele>
        <time>2025-02-26T13:16:55Z</time>
      </trkpt>
      <trkpt lat="47.85454" lon="3.5784">
        <ele>96</ele>
        <time>2025-02-26T13:17:01Z</time>
      </trkpt>
      <trkpt lat="47.85453" lon="3.57835">
        <ele>96</ele>
        <time>2025-02-26T13:17:11Z</time>
      </trkpt>
      <trkpt lat="47.85451" lon="3.57821">
        <ele>95.7</ele>
        <time>2025-02-26T13:17:30Z</time>
      </trkpt>
      <trkpt lat="47.8545" lon="3.57816">
        <ele>95.5</ele>
        <time>2025-02-26T13:17:40Z</time>
      </trkpt>
      <trkpt lat="47.85447" lon="3.57806">
        <ele>95.1</ele>
        <time>2025-02-26T13:17:58Z</time>
      </trkpt>
      <trkpt lat="47.85444" lon="3.57797">
        <ele>95</ele>
        <time>2025-02-26T13:18:13Z</time>
      </trkpt>
      <trkpt lat="47.85441" lon="3.57788">
        <ele>95</ele>
        <time>2025-02-26T13:18:15Z</time>
      </trkpt>
      <trkpt lat="47.85437" lon="3.5778">
        <ele>95</ele>
        <time>2025-02-26T13:18:31Z</time>
      </trkpt>
      <trkpt lat="47.85432" lon="3.57771">
        <ele>95</ele>
        <time>2025-02-26T13:18:36Z</time>
      </trkpt>
      <trkpt lat="47.85426" lon="3.5776">
        <ele>95</ele>
        <time>2025-02-26T13:18:42Z</time>
      </trkpt>
      <trkpt lat="47.85404" lon="3.57731">
        <ele>94.5</ele>
        <time>2025-02-26T13:18:48Z</time>
      </trkpt>
      <trkpt lat="47.85396" lon="3.57722">
        <ele>94.3</ele>
        <time>2025-02-26T13:19:00Z</time>
      </trkpt>
      <trkpt lat="47.8539" lon="3.57712">
        <ele>94</ele>
        <time>2025-02-26T13:19:08Z</time>
      </trkpt>
      <trkpt lat="47.85386" lon="3.57705">
        <ele>94</ele>
        <time>2025-02-26T13:19:19Z</time>
      </trkpt>
      <trkpt lat="47.85382" lon="3.57697">
        <ele>94</ele>
        <time>2025-02-26T13:19:29Z</time>
      </trkpt>
      <trkpt lat="47.85378" lon="3.57689">
        <ele>94</ele>
        <time>2025-02-26T13:19:42Z</time>
      </trkpt>
      <trkpt lat="47.85376" lon="3.57683">
        <ele>94</ele>
        <time>2025-02-26T13:19:53Z</time>
      </trkpt>
      <trkpt lat="47.85372" lon="3.57659">
        <ele>94</ele>
        <time>2025-02-26T13:19:57Z</time>
      </trkpt>
      <trkpt lat="47.85369" lon="3.57652">
        <ele>94</ele>
        <time>2025-02-26T13:20:06Z</time>
      </trkpt>
      <trkpt lat="47.85364" lon="3.5765">
        <ele>94</ele>
        <time>2025-02-26T13:20:21Z</time>
      </trkpt>
      <trkpt lat="47.85358" lon="3.57651">
        <ele>94</ele>
        <time>2025-02-26T13:20:41Z</time>
      </trkpt>
      <trkpt lat="47.85337" lon="3.5766">
        <ele>94</ele>
        <time>2025-02-26T13:20:47Z</time>
      </trkpt>
      <trkpt lat="47.85323" lon="3.57668">
        <ele>94</ele>
        <time>2025-02-26T13:21:02Z</time>
      </trkpt>
      <trkpt lat="47.85295" lon="3.57678">
        <ele>94.2</ele>
        <time>2025-02-26T13:21:17Z</time>
      </trkpt>
      <trkpt lat="47.85274" lon="3.57686">
        <ele>94</ele>
        <time>2025-02-26T13:21:19Z</time>
      </trkpt>
      <trkpt lat="47.85251" lon="3.57695">
        <ele>94</ele>
        <time>2025-02-26T13:21:38Z</time>
      </trkpt>
      <trkpt lat="47.85221" lon="3.57707">
        <ele>94</ele>
        <time>2025-02-26T13:21:54Z</time>
      </trkpt>
      <trkpt lat="47.85188" lon="3.57722">
        <ele>94</ele>
        <time>2025-02-26T13:21:56Z</time>
      </trkpt>
      <trkpt lat="47.85163" lon="3.57733">
        <ele>94</ele>
        <time>2025-02-26T13:22:07Z</time>
      </trkpt>
      <trkpt lat="47.85154" lon="3.57736">
        <ele>94</ele>
        <time>2025-02-26T13:22:20Z</time>
      </trkpt>
      <trkpt lat="47.85155" lon="3.57726">
        <ele>94</ele>
        <time>2025-02-26T13:22:39Z</time>
      </trkpt>
      <trkpt lat="47.85156" lon="3.57717">
        <ele>93.8</ele>
        <time>2025-02-26T13:22:46Z</time>
      </trkpt>
      <trkpt lat="47.85157" lon="3.57708">
        <ele>93.5</ele>
        <time>2025-02-26T13:23:05Z</time>
      </trkpt>
      <trkpt lat="47.85157" lon="3.57697">
        <ele>93.1</ele>
        <time>2025-02-26T13:23:09Z</time>
      </trkpt>
      <trkpt lat="47.85156" lon="3.57676">
        <ele>92.7</ele>
        <time>2025-02-26T13:23:19Z</time>
      </trkpt>
      <trkpt lat="47.85154" lon="3.57653">
        <ele>92.3</ele>
        <time>2025-02-26T13:23:29Z</time>
      </trkpt>
      <trkpt lat="47.85153" lon="3.57643">
        <ele>92.1</ele>
        <time>2025-02-26T13:23:37Z</time>
      </trkpt>
      <trkpt lat="47.85153" lon="3.57634">
        <ele>92</ele>
        <time>2025-02-26T13:23:41Z</time>
      </trkpt>
      <trkpt lat="47.85151" lon="3.57626">
        <ele>91.9</ele>
        <time>2025-02-26T13:23:59Z</time>
      </trkpt>
      <trkpt lat="47.85151" lon="3.57619">
        <ele>91.9</ele>
        <time>2025-02-26T13:24:02Z</time>
      </trkpt>
      <trkpt lat="47.85152" lon="3.57611">
        <ele>91.9</ele>
        <time>2025-02-26T13:24:06Z</time>
      </trkpt>
      <trkpt lat="47.85152" lon="3.57608">
        <ele>91.9</ele>
        <time>2025-02-26T13:24:18Z</time>
      </trkpt>
      <trkpt lat="47.85153" lon="3.576">
        <ele>92</ele>
        <time>2025-02-26T13:24:30Z</time>
      </trkpt>
      <trkpt lat="47.8516" lon="3.57579">
        <ele>92.4</ele>
        <time>2025-02-26T13:24:35Z</time>
      </trkpt>
      <trkpt lat="47.85168" lon="3.57552">
        <ele>91.9</ele>
        <time>2025-02-26T13:24:37Z</time>
      </trkpt>
      <trkpt lat="47.85171" lon="3.57543">
        <ele>91.7</ele>
        <time>2025-02-26T13:24:41Z</time>
      </trkpt>
      <trkpt lat="47.85172" lon="3.5754">
        <ele>91.7</ele>
        <time>2025-02-26T13:24:47Z</time>
      </trkpt>
      <trkpt lat="47.85173" lon="3.57535">
        <ele>91.7</ele>
        <time>2025-02-26T13:24:52Z</time>
      </trkpt>
      <trkpt lat="47.85176" lon="3.57522">
        <ele>91.7</ele>
        <time>2025-02-26T13:25:12Z</time>
      </trkpt>
      <trkpt lat="47.85179" lon="3.57511">
        <ele>91.9</ele>
        <time>2025-02-26T13:25:18Z</time>
      </trkpt>
      <trkpt lat="47.85182" lon="3.57496">
        <ele>92</ele>
        <time>2025-02-26T13:25:28Z</time>
      </trkpt>
      <trkpt lat="47.85184" lon="3.57488">
        <ele>92</ele>
        <time>2025-02-26T13:25:30Z</time>
      </trkpt>
      <trkpt lat="47.85188" lon="3.57451">
        <ele>91.8</ele>
        <time>2025-02-26T13:25:48Z</time>
      </trkpt>
      <trkpt lat="47.85192" lon="3.57434">
        <ele>91.6</ele>
        <time>2025-02-26T13:25:55Z</time>
      </trkpt>
      <trkpt lat="47.85195" lon="3.5742">
        <ele>91.1</ele>
        <time>2025-02-26T13:26:10Z</time>
      </trkpt>
      <trkpt lat="47.85199" lon="3.574">
        <ele>91.2</ele>
        <time>2025-02-26T13:26:14Z</time>
      </trkpt>
      <trkpt lat="47.85202" lon="3.57389">
        <ele>91.3</ele>
        <time>2025-02-26T13:26:21Z</time>
      </trkpt>
      <trkpt lat="47.85206" lon="3.57378">
        <ele>91.2</ele>
        <time>2025-02-26T13:26:29Z</time>
      </trkpt>
      <trkpt lat="47.85208" lon="3.57372">
        <ele>91.2</ele>
        <time>2025-02-26T13:26:40Z</time>
      </trkpt>
      <trkpt lat="47.85209" lon="3.57368">
        <ele>91.2</ele>
        <time>2025-02-26T13:26:57Z</time>
      </trkpt>
      <trkpt lat="47.8521" lon="3.57364">
        <ele>91.2</ele>
        <time>2025-02-26T13:27:17Z</time>
      </trkpt>
      <trkpt lat="47.85211" lon="3.57359">
        <ele>91.2</ele>
        <time>2025-02-26T13:27:26Z</time>
      </trkpt>
      <trkpt lat="47.85213" lon="3.57348">
        <ele>91.5</ele>
        <time>2025-02-26T13:27:31Z</time>
      </trkpt>
      <trkpt lat="47.85217" lon="3.57332">
        <ele>91.8</ele>
        <time>2025-02-26T13:27:42Z</time>
      </trkpt>
      <trkpt lat="47.8522" lon="3.57309">
        <ele>91.9</ele>
        <time>2025-02-26T13:27:45Z</time>
      </trkpt>
      <trkpt lat="47.85225" lon="3.57279">
        <ele>92.1</ele>
        <time>2025-02-26T13:27:57Z</time>
      </trkpt>
      <trkpt lat="47.8523" lon="3.57249">
        <ele>91.6</ele>
        <time>2025-02-26T13:28:00Z</time>
      </trkpt>
      <trkpt lat="47.85233" lon="3.57235">
        <ele>91.8</ele>
        <time>2025-02-26T13:28:10Z</time>
      </trkpt>
      <trkpt lat="47.85234" lon="3.57215">
        <ele>91.9</ele>
        <time>2025-02-26T13:28:25Z</time>
      </trkpt>
      <trkpt lat="47.85235" lon="3.57205">
        <ele>91.9</ele>
        <time>2025-02-26T13:28:42Z</time>
      </trkpt>
      <trkpt lat="47.85235" lon="3.57185">
        <ele>91.9</ele>
        <time>2025-02-26T13:29:00Z</time>
      </trkpt>
      <trkpt lat="47.85234" lon="3.57169">
        <ele>91.8</ele>
        <time>2025-02-26T13:29:20Z</time>
      </trkpt>
      <trkpt lat="47.85232" lon="3.5715">
        <ele>91.7</ele>
        <time>2025-02-26T13:29:32Z</time>
      </trkpt>
      <trkpt lat="47.8523" lon="3.57126">
        <ele>91.6</ele>
        <time>2025-02-26T13:29:41Z</time>
      </trkpt>
      <trkpt lat="47.85228" lon="3.57097">
        <ele>91.8</ele>
        <time>2025-02-26T13:29:59Z</time>
      </trkpt>
      <trkpt lat="47.85228" lon="3.57085">
        <ele>92.2</ele>
        <time>2025-02-26T13:30:05Z</time>
      </trkpt>
      <trkpt lat="47.85229" lon="3.57072">
        <ele>92.2</ele>
        <time>2025-02-26T13:30:19Z</time>
      </trkpt>
      <trkpt lat="47.85232" lon="3.57059">
        <ele>92.3</ele>
        <time>2025-02-26T13:30:21Z</time>
      </trkpt>
      <trkpt lat="47.85241" lon="3.57033">
        <ele>92.1</ele>
        <time>2025-02-26T13:30:31Z</time>
      </trkpt>
      <trkpt lat="47.85255" lon="3.56995">
        <ele>92.7</ele>
        <time>2025-02-26T13:30:39Z</time>
      </trkpt>
      <trkpt lat="47.85261" lon="3.56977">
        <ele>92.1</ele>
        <time>2025-02-26T13:30:55Z</time>
      </trkpt>
      <trkpt lat="47.85263" lon="3.56971">
        <ele>92</ele>
        <time>2025-02-26T13:31:13Z</time>
      </trkpt>
      <trkpt lat="47.8527" lon="3.56944">
        <ele>92</ele>
        <time>2025-02-26T13:31:26Z</time>
      </trkpt>
      <trkpt lat="47.85277" lon="3.56912">
        <ele>93</ele>
        <time>2025-02-26T13:31:43Z</time>
      </trkpt>
      <trkpt lat="47.85285" lon="3.56877">
        <ele>92.4</ele>
        <time>2025-02-26T13:31:55Z</time>
      </trkpt>
      <trkpt lat="47.85288" lon="3.56864">
        <ele>92.1</ele>
        <time>2025-02-26T13:32:08Z</time>
      </trkpt>
      <trkpt lat="47.85296" lon="3.56838">
        <ele>92</ele>
        <time>2025-02-26T13:32:10Z</time>
      </trkpt>
      <trkpt lat="47.85301" lon="3.56823">
        <ele>92.3</ele>
        <time>2025-02-26T13:32:19Z</time>
      </trkpt>
      <trkpt lat="47.85308" lon="3.56806">
        <ele>92.9</ele>
        <time>2025-02-26T13:32:23Z</time>
      </trkpt>
      <trkpt lat="47.85317" lon="3.56787">
        <ele>92.2</ele>
        <time>2025-02-26T13:32:26Z</time>
      </trkpt>
      <trkpt lat="47.85332" lon="3.56756">
        <ele>92.7</ele>
        <time>2025-02-26T13:32:36Z</time>
      </trkpt>
      <trkpt lat="47.8535" lon="3.56719">
        <ele>92.6</ele>
        <time>2025-02-26T13:32:47Z</time>
      </trkpt>
      <trkpt lat="47.85357" lon="3.56704">
        <ele>92.9</ele>
        <time>2025-02-26T13:32:59Z</time>
      </trkpt>
      <trkpt lat="47.85365" lon="3.56688">
        <ele>92.8</ele>
        <time>2025-02-26T13:33:06Z</time>
      </trkpt>
      <trkpt lat="47.85369" lon="3.56678">
        <ele>92.8</ele>
        <time>2025-02-26T13:33:24Z</time>
      </trkpt>
      <trkpt lat="47.85377" lon="3.56661">
        <ele>93</ele>
        <time>2025-02-26T13:33:29Z</time>
      </trkpt>
      <trkpt lat="47.85383" lon="3.56647">
        <ele>93.4</ele>
        <time>2025-02-26T13:33:32Z</time>
      </trkpt>
      <trkpt lat="47.85393" lon="3.5662">
        <ele>93.5</ele>
        <time>2025-02-26T13:33:37Z</time>
      </trkpt>
      <trkpt lat="47.85402" lon="3.56593">
        <ele>93.3</ele>
        <time>2025-02-26T13:33:50Z</time>
      </trkpt>
      <trkpt lat="47.85411" lon="3.56569">
        <ele>93.3</ele>
        <time>2025-02-26T13:34:04Z</time>
      </trkpt>
      <trkpt lat="47.85421" lon="3.56538">
        <ele>93</ele>
        <time>2025-02-26T13:34:16Z</time>
      </trkpt>
      <trkpt lat="47.85429" lon="3.56514">
        <ele>92.6</ele>
        <time>2025-02-26T13:34:24Z</time>
      </trkpt>
      <trkpt lat="47.85434" lon="3.56495">
        <ele>92.8</ele>
        <time>2025-02-26T13:34:35Z</time>
      </trkpt>
      <trkpt lat="47.85439" lon="3.5647">
        <ele>93.2</ele>
        <time>2025-02-26T13:34:44Z</time>
      </trkpt>
      <trkpt lat="47.85443" lon="3.5645">
        <ele>93.7</ele>
        <time>2025-02-26T13:35:00Z</time>
      </trkpt>
      <trkpt lat="47.85448" lon="3.56416">
        <ele>93.6</ele>
        <time>2025-02-26T13:35:15Z</time>
      </trkpt>
      <trkpt lat="47.85451" lon="3.56397">
        <ele>92.6</ele>
        <time>2025-02-26T13:35:28Z</time>
      </trkpt>
      <trkpt lat="47.85455" lon="3.56381">
        <ele>92.3</ele>
        <time>2025-02-26T13:35:48Z</time>
      </trkpt>
      <trkpt lat="47.8546" lon="3.56368">
        <ele>92.7</ele>
        <time>2025-02-26T13:36:05Z</time>
      </trkpt>
      <trkpt lat="47.85468" lon="3.56352">
        <ele>93.6</ele>
        <time>2025-02-26T13:36:07Z</time>
      </trkpt>
      <trkpt lat="47.85477" lon="3.56336">
        <ele>94</ele>
        <time>2025-02-26T13:36:12Z</time>
      </trkpt>
      <trkpt lat="47.85493" lon="3.56316">
        <ele>93.8</ele>
        <time>2025-02-26T13:36:30Z</time>
      </trkpt>
      <trkpt lat="47.85498" lon="3.5631">
        <ele>93.9</ele>
        <time>2025-02-26T13:36:38Z</time>
      </trkpt>
      <trkpt lat="47.85514" lon="3.56296">
        <ele>93.7</ele>
        <time>2025-02-26T13:36:50Z</time>
      </trkpt>
      <trkpt lat="47.85526" lon="3.56284">
        <ele>93.8</ele>
        <time>2025-02-26T13:37:01Z</time>
      </trkpt>
      <trkpt lat="47.8554" lon="3.56271">
        <ele>93.7</ele>
        <time>2025-02-26T13:37:03Z</time>
      </trkpt>
      <trkpt lat="47.85546" lon="3.56266">
        <ele>93.6</ele>
        <time>2025-02-26T13:37:16Z</time>
      </trkpt>
      <trkpt lat="47.85557" lon="3.56257">
        <ele>93.7</ele>
        <time>2025-02-26T13:37:28Z</time>
      </trkpt>
      <trkpt lat="47.8556" lon="3.56255">
        <ele>93.8</ele>
        <time>2025-02-26T13:37:40Z</time>
      </trkpt>
      <trkpt lat="47.85568" lon="3.56248">
        <ele>93.9</ele>
        <time>2025-02-26T13:37:59Z</time>
      </trkpt>
      <trkpt lat="47.85573" lon="3.56242">
        <ele>93.8</ele>
        <time>2025-02-26T13:38:17Z</time>
      </trkpt>
      <trkpt lat="47.85577" lon="3.56236">
        <ele>93.8</ele>
        <time>2025-02-26T13:38:23Z</time>
      </trkpt>
      <trkpt lat="47.85578" lon="3.5623">
        <ele>93.7</ele>
        <time>2025-02-26T13:38:40Z</time>
      </trkpt>
      <trkpt lat="47.85578" lon="3.56221">
        <ele>93.6</ele>
        <time>2025-02-26T13:38:55Z</time>
      </trkpt>
      <trkpt lat="47.85576" lon="3.56195">
        <ele>93</ele>
        <time>2025-02-26T13:39:04Z</time>
      </trkpt>
      <trkpt lat="47.85575" lon="3.56187">
        <ele>93.2</ele>
        <time>2025-02-26T13:39:22Z</time>
      </trkpt>
      <trkpt lat="47.85572" lon="3.56159">
        <ele>93.5</ele>
        <time>2025-02-26T13:39:25Z</time>
      </trkpt>
      <trkpt lat="47.8557" lon="3.56148">
        <ele>93.2</ele>
        <time>2025-02-26T13:39:29Z</time>
      </trkpt>
      <trkpt lat="47.85568" lon="3.56123">
        <ele>92.8</ele>
        <time>2025-02-26T13:39:34Z</time>
      </trkpt>
      <trkpt lat="47.85564" lon="3.56083">
        <ele>93.6</ele>
        <time>2025-02-26T13:39:41Z</time>
      </trkpt>
      <trkpt lat="47.85562" lon="3.56066">
        <ele>93.5</ele>
        <time>2025-02-26T13:39:45Z</time>
      </trkpt>
      <trkpt lat="47.85559" lon="3.56044">
        <ele>93.3</ele>
        <time>2025-02-26T13:39:53Z</time>
      </trkpt>
      <trkpt lat="47.85555" lon="3.56013">
        <ele>93</ele>
        <time>2025-02-26T13:40:03Z</time>
      </trkpt>
      <trkpt lat="47.85551" lon="3.55978">
        <ele>92.9</ele>
        <time>2025-02-26T13:40:09Z</time>
      </trkpt>
      <trkpt lat="47.85548" lon="3.55941">
        <ele>92.8</ele>
        <time>2025-02-26T13:40:19Z</time>
      </trkpt>
      <trkpt lat="47.85546" lon="3.55917">
        <ele>93.3</ele>
        <time>2025-02-26T13:40:37Z</time>
      </trkpt>
      <trkpt lat="47.85544" lon="3.55906">
        <ele>93.4</ele>
        <time>2025-02-26T13:40:57Z</time>
      </trkpt>
      <trkpt lat="47.85543" lon="3.55898">
        <ele>93.4</ele>
        <time>2025-02-26T13:41:13Z</time>
      </trkpt>
      <trkpt lat="47.85542" lon="3.5589">
        <ele>93.5</ele>
        <time>2025-02-26T13:41:29Z</time>
      </trkpt>
      <trkpt lat="47.8554" lon="3.5588">
        <ele>93.3</ele>
        <time>2025-02-26T13:41:47Z</time>
      </trkpt>
      <trkpt lat="47.85531" lon="3.55849">
        <ele>91.9</ele>
        <time>2025-02-26T13:41:53Z</time>
      </trkpt>
      <trkpt lat="47.85525" lon="3.55828">
        <ele>90.9</ele>
        <time>2025-02-26T13:41:57Z</time>
      </trkpt>
      <trkpt lat="47.85524" lon="3.55821">
        <ele>90.6</ele>
        <time>2025-02-26T13:42:05Z</time>
      </trkpt>
      <trkpt lat="47.85524" lon="3.55815">
        <ele>90.4</ele>
        <time>2025-02-26T13:42:24Z</time>
      </trkpt>
      <trkpt lat="47.85524" lon="3.55811">
        <ele>90.2</ele>
        <time>2025-02-26T13:42:42Z</time>
      </trkpt>
      <trkpt lat="47.85524" lon="3.55806">
        <ele>90</ele>
        <time>2025-02-26T13:42:56Z</time>
      </trkpt>
      <trkpt lat="47.85526" lon="3.55799">
        <ele>89.8</ele>
        <time>2025-02-26T13:43:06Z</time>
      </trkpt>
      <trkpt lat="47.85528" lon="3.55798">
        <ele>89.8</ele>
        <time>2025-02-26T13:43:24Z</time>
      </trkpt>
      <trkpt lat="47.85532" lon="3.55794">
        <ele>90.2</ele>
        <time>2025-02-26T13:43:27Z</time>
      </trkpt>
      <trkpt lat="47.85538" lon="3.5579">
        <ele>90.7</ele>
        <time>2025-02-26T13:43:33Z</time>
      </trkpt>
      <trkpt lat="47.8555" lon="3.55787">
        <ele>91.5</ele>
        <time>2025-02-26T13:43:51Z</time>
      </trkpt>
      <trkpt lat="47.85563" lon="3.55784">
        <ele>91.1</ele>
        <time>2025-02-26T13:43:57Z</time>
      </trkpt>
      <trkpt lat="47.85576" lon="3.5578">
        <ele>90.3</ele>
        <time>2025-02-26T13:44:07Z</time>
      </trkpt>
      <trkpt lat="47.85579" lon="3.55779">
        <ele>90.1</ele>
        <time>2025-02-26T13:44:20Z</time>
      </trkpt>
      <trkpt lat="47.85585" lon="3.55778">
        <ele>90.1</ele>
        <time>2025-02-26T13:44:40Z</time>
      </trkpt>
      <trkpt lat="47.85588" lon="3.55778">
        <ele>90.2</ele>
        <time>2025-02-26T13:44:56Z</time>
      </trkpt>
      <trkpt lat="47.85593" lon="3.55779">
        <ele>90.4</ele>
        <time>2025-02-26T13:45:07Z</time>
      </trkpt>
      <trkpt lat="47.85599" lon="3.55779">
        <ele>90.6</ele>
        <time>2025-02-26T13:45:24Z</time>
      </trkpt>
      <trkpt lat="47.856" lon="3.5579">
        <ele>91.2</ele>
        <time>2025-02-26T13:45:27Z</time>
      </trkpt>
      <trkpt lat="47.85599" lon="3.55799">
        <ele>91.7</ele>
        <time>2025-02-26T13:45:43Z</time>
      </trkpt>
      <trkpt lat="47.85599" lon="3.55813">
        <ele>92</ele>
        <time>2025-02-26T13:45:51Z</time>
      </trkpt>
      <trkpt lat="47.85597" lon="3.55821">
        <ele>92</ele>
        <time>2025-02-26T13:46:04Z</time>
      </trkpt>
      <trkpt lat="47.85594" lon="3.55842">
        <ele>92.3</ele>
        <time>2025-02-26T13:46:07Z</time>
      </trkpt>
      <trkpt lat="47.85594" lon="3.55855">
        <ele>92.8</ele>
        <time>2025-02-26T13:46:14Z</time>
      </trkpt>
      <trkpt lat="47.85598" lon="3.55914">
        <ele>93.9</ele>
        <time>2025-02-26T13:46:19Z</time>
      </trkpt>
      <trkpt lat="47.85602" lon="3.55956">
        <ele>93.7</ele>
        <time>2025-02-26T13:46:26Z</time>
      </trkpt>
      <trkpt lat="47.85608" lon="3.56017">
        <ele>93.2</ele>
        <time>2025-02-26T13:46:33Z</time>
      </trkpt>
      <trkpt lat="47.85611" lon="3.56048">
        <ele>93</ele>
        <time>2025-02-26T13:46:43Z</time>
      </trkpt>
      <trkpt lat="47.85614" lon="3.5608">
        <ele>92.2</ele>
        <time>2025-02-26T13:46:56Z</time>
      </trkpt>
      <trkpt lat="47.85618" lon="3.56122">
        <ele>93</ele>
        <time>2025-02-26T13:47:02Z</time>
      </trkpt>
      <trkpt lat="47.85622" lon="3.56164">
        <ele>93.2</ele>
        <time>2025-02-26T13:47:17Z</time>
      </trkpt>
      <trkpt lat="47.85623" lon="3.56172">
        <ele>93.3</ele>
        <time>2025-02-26T13:47:28Z</time>
      </trkpt>
      <trkpt lat="47.85624" lon="3.56181">
        <ele>93.3</ele>
        <time>2025-02-26T13:47:44Z</time>
      </trkpt>
      <trkpt lat="47.85627" lon="3.56187">
        <ele>93.3</ele>
        <time>2025-02-26T13:48:02Z</time>
      </trkpt>
      <trkpt lat="47.85629" lon="3.56194">
        <ele>93.4</ele>
        <time>2025-02-26T13:48:17Z</time>
      </trkpt>
      <trkpt lat="47.85632" lon="3.56198">
        <ele>93.2</ele>
        <time>2025-02-26T13:48:21Z</time>
      </trkpt>
      <trkpt lat="47.85636" lon="3.56202">
        <ele>93.1</ele>
        <time>2025-02-26T13:48:39Z</time>
      </trkpt>
      <trkpt lat="47.85638" lon="3.56204">
        <ele>93</ele>
        <time>2025-02-26T13:48:55Z</time>
      </trkpt>
      <trkpt lat="47.85643" lon="3.56206">
        <ele>92.9</ele>
        <time>2025-02-26T13:49:14Z</time>
      </trkpt>
      <trkpt lat="47.85648" lon="3.56206">
        <ele>92.7</ele>
        <time>2025-02-26T13:49:28Z</time>
      </trkpt>
      <trkpt lat="47.85652" lon="3.56204">
        <ele>92.7</ele>
        <time>2025-02-26T13:49:47Z</time>
      </trkpt>
      <trkpt lat="47.85656" lon="3.56202">
        <ele>92.7</ele>
        <time>2025-02-26T13:49:56Z</time>
      </trkpt>
      <trkpt lat="47.8566" lon="3.56201">
        <ele>92.7</ele>
        <time>2025-02-26T13:50:03Z</time>
      </trkpt>
      <trkpt lat="47.85672" lon="3.56194">
        <ele>93.2</ele>
        <time>2025-02-26T13:50:13Z</time>
      </trkpt>
      <trkpt lat="47.85688" lon="3.56184">
        <ele>93.5</ele>
        <time>2025-02-26T13:50:31Z</time>
      </trkpt>
      <trkpt lat="47.85705" lon="3.56174">
        <ele>93.5</ele>
        <time>2025-02-26T13:50:35Z</time>
      </trkpt>
      <trkpt lat="47.85731" lon="3.56159">
        <ele>93.6</ele>
        <time>2025-02-26T13:50:54Z</time>
      </trkpt>
      <trkpt lat="47.8575" lon="3.56148">
        <ele>93.4</ele>
        <time>2025-02-26T13:51:12Z</time>
      </trkpt>
      <trkpt lat="47.8577" lon="3.56137">
        <ele>93</ele>
        <time>2025-02-26T13:51:17Z</time>
      </trkpt>
      <trkpt lat="47.858" lon="3.56121">
        <ele>93.1</ele>
        <time>2025-02-26T13:51:35Z</time>
      </trkpt>
      <trkpt lat="47.85811" lon="3.56115">
        <ele>93.7</ele>
        <time>2025-02-26T13:51:49Z</time>
      </trkpt>
      <trkpt lat="47.85822" lon="3.5611">
        <ele>93.4</ele>
        <time>2025-02-26T13:52:08Z</time>
      </trkpt>
      <trkpt lat="47.85842" lon="3.56101">
        <ele>92.9</ele>
        <time>2025-02-26T13:52:24Z</time>
      </trkpt>
      <trkpt lat="47.85858" lon="3.56094">
        <ele>93.2</ele>
        <time>2025-02-26T13:52:35Z</time>
      </trkpt>
      <trkpt lat="47.85876" lon="3.56085">
        <ele>93.3</ele>
        <time>2025-02-26T13:52:54Z</time>
      </trkpt>
      <trkpt lat="47.85894" lon="3.56076">
        <ele>93.2</ele>
        <time>2025-02-26T13:53:07Z</time>
      </trkpt>
      <trkpt lat="47.85913" lon="3.56062">
        <ele>93.6</ele>
        <time>2025-02-26T13:53:21Z</time>
      </trkpt>
      <trkpt lat="47.85932" lon="3.56048">
        <ele>92.8</ele>
        <time>2025-02-26T13:53:39Z</time>
      </trkpt>
      <trkpt lat="47.8595" lon="3.56033">
        <ele>92.8</ele>
        <time>2025-02-26T13:53:53Z</time>
      </trkpt>
      <trkpt lat="47.85969" lon="3.56017">
        <ele>92.9</ele>
        <time>2025-02-26T13:54:01Z</time>
      </trkpt>
      <trkpt lat="47.85986" lon="3.56003">
        <ele>93</ele>
        <time>2025-02-26T13:54:08Z</time>
      </trkpt>
      <trkpt lat="47.85996" lon="3.55995">
        <ele>93</ele>
        <time>2025-02-26T13:54:27Z</time>
      </trkpt>
      <trkpt lat="47.86016" lon="3.55983">
        <ele>92.8</ele>
        <time>2025-02-26T13:54:36Z</time>
      </trkpt>
      <trkpt lat="47.86034" lon="3.55973">
        <ele>93</ele>
        <time>2025-02-26T13:54:45Z</time>
      </trkpt>
      <trkpt lat="47.86053" lon="3.55963">
        <ele>93</ele>
        <time>2025-02-26T13:55:01Z</time>
      </trkpt>
      <trkpt lat="47.86084" lon="3.55946">
        <ele>93</ele>
        <time>2025-02-26T13:55:20Z</time>
      </trkpt>
      <trkpt lat="47.86107" lon="3.55933">
        <ele>92.1</ele>
        <time>2025-02-26T13:55:35Z</time>
      </trkpt>
      <trkpt lat="47.86124" lon="3.55923">
        <ele>92.1</ele>
        <time>2025-02-26T13:55:48Z</time>
      </trkpt>
      <trkpt lat="47.86141" lon="3.55913">
        <ele>91.9</ele>
        <time>2025-02-26T13:55:54Z</time>
      </trkpt>
      <trkpt lat="47.86156" lon="3.55904">
        <ele>91.8</ele>
        <time>2025-02-26T13:56:11Z</time>
      </trkpt>
      <trkpt lat="47.86169" lon="3.55898">
        <ele>92</ele>
        <time>2025-02-26T13:56:26Z</time>
      </trkpt>
      <trkpt lat="47.86179" lon="3.55894">
        <ele>91.9</ele>
        <time>2025-02-26T13:56:30Z</time>
      </trkpt>
      <trkpt lat="47.86188" lon="3.55893">
        <ele>91.9</ele>
        <time>2025-02-26T13:56:44Z</time>
      </trkpt>
      <trkpt lat="47.86195" lon="3.55892">
        <ele>91.9</ele>
        <time>2025-02-26T13:57:04Z</time>
      </trkpt>
      <trkpt lat="47.86199" lon="3.55892">
        <ele>91.9</ele>
        <time>2025-02-26T13:57:24Z</time>
      </trkpt>
      <trkpt lat="47.86212" lon="3.55894">
        <ele>92.1</ele>
        <time>2025-02-26T13:57:34Z</time>
      </trkpt>
      <trkpt lat="47.86217" lon="3.55895">
        <ele>92.1</ele>
        <time>2025-02-26T13:57:36Z</time>
      </trkpt>
      <trkpt lat="47.8623" lon="3.55899">
        <ele>92.3</ele>
        <time>2025-02-26T13:57:43Z</time>
      </trkpt>
      <trkpt lat="47.86249" lon="3.55906">
        <ele>92</ele>
        <time>2025-02-26T13:57:46Z</time>
      </trkpt>
      <trkpt lat="47.86267" lon="3.55911">
        <ele>92.5</ele>
        <time>2025-02-26T13:58:03Z</time>
      </trkpt>
      <trkpt lat="47.86292" lon="3.55919">
        <ele>92.5</ele>
        <time>2025-02-26T13:58:06Z</time>
      </trkpt>
      <trkpt lat="47.86307" lon="3.55923">
        <ele>92</ele>
        <time>2025-02-26T13:58:17Z</time>
      </trkpt>
      <trkpt lat="47.86329" lon="3.5593">
        <ele>92</ele>
        <time>2025-02-26T13:58:32Z</time>
      </trkpt>
      <trkpt lat="47.86353" lon="3.55939">
        <ele>91.9</ele>
        <time>2025-02-26T13:58:40Z</time>
      </trkpt>
      <trkpt lat="47.86363" lon="3.55942">
        <ele>91.9</ele>
        <time>2025-02-26T13:58:59Z</time>
      </trkpt>
      <trkpt lat="47.86364" lon="3.55936">
        <ele>91.7</ele>
        <time>2025-02-26T13:59:08Z</time>
      </trkpt>
      <trkpt lat="47.86371" lon="3.55919">
        <ele>91.1</ele>
        <time>2025-02-26T13:59:10Z</time>
      </trkpt>
      <trkpt lat="47.86385" lon="3.55893">
        <ele>91</ele>
        <time>2025-02-26T13:59:14Z</time>
      </trkpt>
      <trkpt lat="47.86394" lon="3.55874">
        <ele>91</ele>
        <time>2025-02-26T13:59:20Z</time>
      </trkpt>
      <trkpt lat="47.86408" lon="3.55846">
        <ele>91.4</ele>
        <time>2025-02-26T13:59:25Z</time>
      </trkpt>
      <trkpt lat="47.86419" lon="3.55824">
        <ele>91.9</ele>
        <time>2025-02-26T13:59:33Z</time>
      </trkpt>
      <trkpt lat="47.8643" lon="3.55801">
        <ele>91.4</ele>
        <time>2025-02-26T13:59:41Z</time>
      </trkpt>
      <trkpt lat="47.86439" lon="3.55782">
        <ele>91</ele>
        <time>2025-02-26T13:59:51Z</time>
      </trkpt>
      <trkpt lat="47.86443" lon="3.55776">
        <ele>91</ele>
        <time>2025-02-26T14:00:11Z</time>
      </trkpt>
      <trkpt lat="47.86447" lon="3.5577">
        <ele>91</ele>
        <time>2025-02-26T14:00:27Z</time>
      </trkpt>
      <trkpt lat="47.86457" lon="3.55762">
        <ele>90.8</ele>
        <time>2025-02-26T14:00:45Z</time>
      </trkpt>
      <trkpt lat="47.86469" lon="3.55755">
        <ele>90.3</ele>
        <time>2025-02-26T14:00:47Z</time>
      </trkpt>
      <trkpt lat="47.86461" lon="3.55734">
        <ele>90.2</ele>
        <time>2025-02-26T14:00:53Z</time>
      </trkpt>
      <trkpt lat="47.86459" lon="3.55726">
        <ele>90.1</ele>
        <time>2025-02-26T14:00:56Z</time>
      </trkpt>
      <trkpt lat="47.8645" lon="3.55697">
        <ele>89.8</ele>
        <time>2025-02-26T14:00:59Z</time>
      </trkpt>
      <trkpt lat="47.86448" lon="3.5569">
        <ele>89.9</ele>
        <time>2025-02-26T14:01:06Z</time>
      </trkpt>
      <trkpt lat="47.86448" lon="3.55679">
        <ele>89.9</ele>
        <time>2025-02-26T14:01:18Z</time>
      </trkpt>
      <trkpt lat="47.86454" lon="3.55648">
        <ele>89.9</ele>
        <time>2025-02-26T14:01:30Z</time>
      </trkpt>
      <trkpt lat="47.8646" lon="3.55617">
        <ele>89.6</ele>
        <time>2025-02-26T14:01:35Z</time>
      </trkpt>
      <trkpt lat="47.86464" lon="3.55598">
        <ele>89.2</ele>
        <time>2025-02-26T14:01:45Z</time>
      </trkpt>
      <trkpt lat="47.86465" lon="3.5559">
        <ele>89.1</ele>
        <time>2025-02-26T14:01:55Z</time>
      </trkpt>
      <trkpt lat="47.86468" lon="3.55582">
        <ele>89</ele>
        <time>2025-02-26T14:02:14Z</time>
      </trkpt>
      <trkpt lat="47.86456" lon="3.5557">
        <ele>88.8</ele>
        <time>2025-02-26T14:02:23Z</time>
      </trkpt>
      <trkpt lat="47.86439" lon="3.55549">
        <ele>89</ele>
        <time>2025-02-26T14:02:30Z</time>
      </trkpt>
      <trkpt lat="47.86432" lon="3.55541">
        <ele>89</ele>
        <time>2025-02-26T14:02:39Z</time>
      </trkpt>
      <trkpt lat="47.86415" lon="3.55511">
        <ele>89</ele>
        <time>2025-02-26T14:02:46Z</time>
      </trkpt>
      <trkpt lat="47.86402" lon="3.55485">
        <ele>89</ele>
        <time>2025-02-26T14:02:50Z</time>
      </trkpt>
      <trkpt lat="47.86397" lon="3.55475">
        <ele>89</ele>
        <time>2025-02-26T14:03:04Z</time>
      </trkpt>
      <trkpt lat="47.86372" lon="3.55423">
        <ele>88.7</ele>
        <time>2025-02-26T14:03:18Z</time>
      </trkpt>
      <trkpt lat="47.86368" lon="3.55415">
        <ele>88.7</ele>
        <time>2025-02-26T14:03:29Z</time>
      </trkpt>
      <trkpt lat="47.86347" lon="3.55373">
        <ele>89</ele>
        <time>2025-02-26T14:03:40Z</time>
      </trkpt>
      <trkpt lat="47.86339" lon="3.55358">
        <ele>89</ele>
        <time>2025-02-26T14:03:42Z</time>
      </trkpt>
      <trkpt lat="47.86315" lon="3.5531">
        <ele>89</ele>
        <time>2025-02-26T14:03:44Z</time>
      </trkpt>
      <trkpt lat="47.86307" lon="3.55295">
        <ele>89</ele>
        <time>2025-02-26T14:03:48Z</time>
      </trkpt>
      <trkpt lat="47.86299" lon="3.55279">
        <ele>89</ele>
        <time>2025-02-26T14:03:56Z</time>
      </trkpt>
      <trkpt lat="47.86286" lon="3.55254">
        <ele>89</ele>
        <time>2025-02-26T14:04:12Z</time>
      </trkpt>
      <trkpt lat="47.86272" lon="3.55237">
        <ele>89</ele>
        <time>2025-02-26T14:04:15Z</time>
      </trkpt>
      <trkpt lat="47.86267" lon="3.55232">
        <ele>89</ele>
        <time>2025-02-26T14:04:18Z</time>
      </trkpt>
      <trkpt lat="47.86248" lon="3.55219">
        <ele>89</ele>
        <time>2025-02-26T14:04:20Z</time>
      </trkpt>
      <trkpt lat="47.86238" lon="3.55211">
        <ele>89</ele>
        <time>2025-02-26T14:04:40Z</time>
      </trkpt>
      <trkpt lat="47.86223" lon="3.55207">
        <ele>89</ele>
        <time>2025-02-26T14:04:47Z</time>
      </trkpt>
      <trkpt lat="47.86208" lon="3.55202">
        <ele>89</ele>
        <time>2025-02-26T14:05:01Z</time>
      </trkpt>
      <trkpt lat="47.86203" lon="3.55201">
        <ele>89</ele>
        <time>2025-02-26T14:05:07Z</time>
      </trkpt>
      <trkpt lat="47.86187" lon="3.55197">
        <ele>89</ele>
        <time>2025-02-26T14:05:21Z</time>
      </trkpt>
      <trkpt lat="47.86169" lon="3.55195">
        <ele>89</ele>
        <time>2025-02-26T14:05:28Z</time>
      </trkpt>
      <trkpt lat="47.86152" lon="3.55194">
        <ele>89</ele>
        <time>2025-02-26T14:05:36Z</time>
      </trkpt>
      <trkpt lat="47.86148" lon="3.55194">
        <ele>89</ele>
        <time>2025-02-26T14:05:48Z</time>
      </trkpt>
      <trkpt lat="47.86133" lon="3.55196">
        <ele>89</ele>
        <time>2025-02-26T14:05:52Z</time>
      </trkpt>
      <trkpt lat="47.86118" lon="3.55197">
        <ele>89.1</ele>
        <time>2025-02-26T14:06:10Z</time>
      </trkpt>
      <trkpt lat="47.86114" lon="3.55198">
        <ele>89.1</ele>
        <time>2025-02-26T14:06:17Z</time>
      </trkpt>
      <trkpt lat="47.86095" lon="3.55202">
        <ele>89.3</ele>
        <time>2025-02-26T14:06:24Z</time>
      </trkpt>
      <trkpt lat="47.86078" lon="3.55207">
        <ele>89.5</ele>
        <time>2025-02-26T14:06:37Z</time>
      </trkpt>
      <trkpt lat="47.86063" lon="3.55215">
        <ele>89.7</ele>
        <time>2025-02-26T14:06:53Z</time>
      </trkpt>
      <trkpt lat="47.86049" lon="3.55224">
        <ele>89.8</ele>
        <time>2025-02-26T14:07:13Z</time>
      </trkpt>
      <trkpt lat="47.86037" lon="3.55236">
        <ele>89.7</ele>
        <time>2025-02-26T14:07:26Z</time>
      </trkpt>
      <trkpt lat="47.86028" lon="3.55245">
        <ele>89.8</ele>
        <time>2025-02-26T14:07:43Z</time>
      </trkpt>
      <trkpt lat="47.86019" lon="3.55256">
        <ele>89.9</ele>
        <time>2025-02-26T14:07:45Z</time>
      </trkpt>
      <trkpt lat="47.86002" lon="3.55281">
        <ele>90.2</ele>
        <time>2025-02-26T14:07:50Z</time>
      </trkpt>
      <trkpt lat="47.85982" lon="3.5531">
        <ele>89.9</ele>
        <time>2025-02-26T14:08:05Z</time>
      </trkpt>
      <trkpt lat="47.85964" lon="3.55339">
        <ele>90.5</ele>
        <time>2025-02-26T14:08:11Z</time>
      </trkpt>
      <trkpt lat="47.85947" lon="3.55368">
        <ele>90.3</ele>
        <time>2025-02-26T14:08:25Z</time>
      </trkpt>
      <trkpt lat="47.85931" lon="3.55396">
        <ele>90.3</ele>
        <time>2025-02-26T14:08:41Z</time>
      </trkpt>
      <trkpt lat="47.85916" lon="3.55423">
        <ele>90.9</ele>
        <time>2025-02-26T14:08:44Z</time>
      </trkpt>
      <trkpt lat="47.85897" lon="3.55456">
        <ele>90.2</ele>
        <time>2025-02-26T14:08:57Z</time>
      </trkpt>
      <trkpt lat="47.85893" lon="3.55464">
        <ele>90.5</ele>
        <time>2025-02-26T14:09:04Z</time>
      </trkpt>
      <trkpt lat="47.85874" lon="3.55496">
        <ele>90.3</ele>
        <time>2025-02-26T14:09:09Z</time>
      </trkpt>
      <trkpt lat="47.85857" lon="3.55525">
        <ele>91.3</ele>
        <time>2025-02-26T14:09:19Z</time>
      </trkpt>
      <trkpt lat="47.85851" lon="3.55534">
        <ele>91.1</ele>
        <time>2025-02-26T14:09:31Z</time>
      </trkpt>
      <trkpt lat="47.85836" lon="3.55555">
        <ele>91.1</ele>
        <time>2025-02-26T14:09:39Z</time>
      </trkpt>
      <trkpt lat="47.85819" lon="3.55575">
        <ele>91.1</ele>
        <time>2025-02-26T14:09:45Z</time>
      </trkpt>
      <trkpt lat="47.85806" lon="3.55593">
        <ele>91.3</ele>
        <time>2025-02-26T14:09:56Z</time>
      </trkpt>
      <trkpt lat="47.85796" lon="3.55604">
        <ele>91.1</ele>
        <time>2025-02-26T14:10:05Z</time>
      </trkpt>
      <trkpt lat="47.85779" lon="3.55626">
        <ele>91.1</ele>
        <time>2025-02-26T14:10:11Z</time>
      </trkpt>
      <trkpt lat="47.85759" lon="3.55647">
        <ele>90.5</ele>
        <time>2025-02-26T14:10:30Z</time>
      </trkpt>
      <trkpt lat="47.85745" lon="3.55663">
        <ele>90.4</ele>
        <time>2025-02-26T14:10:40Z</time>
      </trkpt>
      <trkpt lat="47.85717" lon="3.55691">
        <ele>91.3</ele>
        <time>2025-02-26T14:11:00Z</time>
      </trkpt>
      <trkpt lat="47.85695" lon="3.55713">
        <ele>91.3</ele>
        <time>2025-02-26T14:11:17Z</time>
      </trkpt>
      <trkpt lat="47.85684" lon="3.55723">
        <ele>91.2</ele>
        <time>2025-02-26T14:11:31Z</time>
      </trkpt>
      <trkpt lat="47.85664" lon="3.55739">
        <ele>91</ele>
        <time>2025-02-26T14:11:39Z</time>
      </trkpt>
      <trkpt lat="47.85654" lon="3.55746">
        <ele>90.9</ele>
        <time>2025-02-26T14:11:50Z</time>
      </trkpt>
      <trkpt lat="47.85641" lon="3.55753">
        <ele>90.1</ele>
        <time>2025-02-26T14:12:05Z</time>
      </trkpt>
      <trkpt lat="47.85623" lon="3.55762">
        <ele>90.2</ele>
        <time>2025-02-26T14:12:18Z</time>
      </trkpt>
      <trkpt lat="47.85614" lon="3.55766">
        <ele>90.5</ele>
        <time>2025-02-26T14:12:34Z</time>
      </trkpt>
      <trkpt lat="47.85609" lon="3.5577">
        <ele>90.7</ele>
        <time>2025-02-26T14:12:41Z</time>
      </trkpt>
      <trkpt lat="47.85604" lon="3.55774">
        <ele>90.7</ele>
        <time>2025-02-26T14:12:56Z</time>
      </trkpt>
      <trkpt lat="47.85599" lon="3.55777">
        <ele>90.6</ele>
        <time>2025-02-26T14:13:03Z</time>
      </trkpt>
      <trkpt lat="47.85598" lon="3.55778">
        <ele>90.5</ele>
        <time>2025-02-26T14:13:09Z</time>
      </trkpt>
      <trkpt lat="47.85593" lon="3.55778">
        <ele>90.3</ele>
        <time>2025-02-26T14:13:29Z</time>
      </trkpt>
      <trkpt lat="47.85588" lon="3.55777">
        <ele>90.2</ele>
        <time>2025-02-26T14:13:37Z</time>
      </trkpt>
      <trkpt lat="47.85585" lon="3.55777">
        <ele>90.1</ele>
        <time>2025-02-26T14:13:39Z</time>
      </trkpt>
      <trkpt lat="47.85579" lon="3.55778">
        <ele>90</ele>
        <time>2025-02-26T14:13:58Z</time>
      </trkpt>
      <trkpt lat="47.85576" lon="3.55779">
        <ele>90.1</ele>
        <time>2025-02-26T14:14:18Z</time>
      </trkpt>
      <trkpt lat="47.85563" lon="3.55783">
        <ele>90.9</ele>
        <time>2025-02-26T14:14:32Z</time>
      </trkpt>
      <trkpt lat="47.85551" lon="3.55786">
        <ele>91.3</ele>
        <time>2025-02-26T14:14:37Z</time>
      </trkpt>
      <trkpt lat="47.85538" lon="3.55789">
        <ele>90.6</ele>
        <time>2025-02-26T14:14:47Z</time>
      </trkpt>
      <trkpt lat="47.85533" lon="3.55792">
        <ele>90.1</ele>
        <time>2025-02-26T14:15:03Z</time>
      </trkpt>
      <trkpt lat="47.85526" lon="3.55799">
        <ele>89.7</ele>
        <time>2025-02-26T14:15:13Z</time>
      </trkpt>
      <trkpt lat="47.85522" lon="3.55796">
        <ele>89.6</ele>
        <time>2025-02-26T14:15:33Z</time>
      </trkpt>
      <trkpt lat="47.85518" lon="3.55795">
        <ele>89.6</ele>
        <time>2025-02-26T14:15:35Z</time>
      </trkpt>
      <trkpt lat="47.85499" lon="3.55799">
        <ele>89.7</ele>
        <time>2025-02-26T14:15:52Z</time>
      </trkpt>
      <trkpt lat="47.85492" lon="3.558">
        <ele>89.6</ele>
        <time>2025-02-26T14:16:11Z</time>
      </trkpt>
      <trkpt lat="47.85476" lon="3.55799">
        <ele>89.1</ele>
        <time>2025-02-26T14:16:31Z</time>
      </trkpt>
      <trkpt lat="47.85453" lon="3.55796">
        <ele>89</ele>
        <time>2025-02-26T14:16:44Z</time>
      </trkpt>
      <trkpt lat="47.85449" lon="3.55796">
        <ele>89</ele>
        <time>2025-02-26T14:16:56Z</time>
      </trkpt>
      <trkpt lat="47.85422" lon="3.55795">
        <ele>89</ele>
        <time>2025-02-26T14:17:12Z</time>
      </trkpt>
      <trkpt lat="47.85416" lon="3.55796">
        <ele>89</ele>
        <time>2025-02-26T14:17:18Z</time>
      </trkpt>
      <trkpt lat="47.85405" lon="3.55796">
        <ele>89</ele>
        <time>2025-02-26T14:17:33Z</time>
      </trkpt>
      <trkpt lat="47.85397" lon="3.55796">
        <ele>89</ele>
        <time>2025-02-26T14:17:51Z</time>
      </trkpt>
      <trkpt lat="47.8539" lon="3.55796">
        <ele>89</ele>
        <time>2025-02-26T14:17:54Z</time>
      </trkpt>
      <trkpt lat="47.85379" lon="3.55797">
        <ele>89</ele>
        <time>2025-02-26T14:18:04Z</time>
      </trkpt>
      <trkpt lat="47.8537" lon="3.55798">
        <ele>89</ele>
        <time>2025-02-26T14:18:19Z</time>
      </trkpt>
      <trkpt lat="47.8536" lon="3.558">
        <ele>89</ele>
        <time>2025-02-26T14:18:21Z</time>
      </trkpt>
      <trkpt lat="47.85338" lon="3.55807">
        <ele>89</ele>
        <time>2025-02-26T14:18:24Z</time>
      </trkpt>
      <trkpt lat="47.85334" lon="3.55808">
        <ele>89</ele>
        <time>2025-02-26T14:18:38Z</time>
      </trkpt>
      <trkpt lat="47.85329" lon="3.55812">
        <ele>89</ele>
        <time>2025-02-26T14:18:50Z</time>
      </trkpt>
      <trkpt lat="47.85324" lon="3.5582">
        <ele>89</ele>
        <time>2025-02-26T14:18:55Z</time>
      </trkpt>
      <trkpt lat="47.85318" lon="3.55818">
        <ele>89</ele>
        <time>2025-02-26T14:19:05Z</time>
      </trkpt>
      <trkpt lat="47.85313" lon="3.55819">
        <ele>89</ele>
        <time>2025-02-26T14:19:16Z</time>
      </trkpt>
      <trkpt lat="47.85297" lon="3.55827">
        <ele>89</ele>
        <time>2025-02-26T14:19:27Z</time>
      </trkpt>
      <trkpt lat="47.85279" lon="3.55838">
        <ele>89</ele>
        <time>2025-02-26T14:19:34Z</time>
      </trkpt>
      <trkpt lat="47.85266" lon="3.5585">
        <ele>89</ele>
        <time>2025-02-26T14:19:37Z</time>
      </trkpt>
      <trkpt lat="47.85248" lon="3.55867">
        <ele>89.2</ele>
        <time>2025-02-26T14:19:39Z</time>
      </trkpt>
      <trkpt lat="47.85246" lon="3.55869">
        <ele>89.2</ele>
        <time>2025-02-26T14:19:50Z</time>
      </trkpt>
      <trkpt lat="47.8524" lon="3.55877">
        <ele>89.4</ele>
        <time>2025-02-26T14:20:10Z</time>
      </trkpt>
      <trkpt lat="47.85232" lon="3.55889">
        <ele>89.4</ele>
        <time>2025-02-26T14:20:20Z</time>
      </trkpt>
      <trkpt lat="47.85229" lon="3.55897">
        <ele>89.2</ele>
        <time>2025-02-26T14:20:30Z</time>
      </trkpt>
      <trkpt lat="47.85226" lon="3.55902">
        <ele>89.1</ele>
        <time>2025-02-26T14:20:35Z</time>
      </trkpt>
      <trkpt lat="47.85224" lon="3.55911">
        <ele>89.1</ele>
        <time>2025-02-26T14:20:39Z</time>
      </trkpt>
      <trkpt lat="47.85218" lon="3.55935">
        <ele>89.6</ele>
        <time>2025-02-26T14:20:43Z</time>
      </trkpt>
      <trkpt lat="47.85217" lon="3.55944">
        <ele>89.8</ele>
        <time>2025-02-26T14:20:55Z</time>
      </trkpt>
      <trkpt lat="47.85216" lon="3.55959">
        <ele>89.8</ele>
        <time>2025-02-26T14:21:12Z</time>
      </trkpt>
      <trkpt lat="47.85215" lon="3.5597">
        <ele>89.8</ele>
        <time>2025-02-26T14:21:21Z</time>
      </trkpt>
      <trkpt lat="47.85216" lon="3.55983">
        <ele>89.8</ele>
        <time>2025-02-26T14:21:30Z</time>
      </trkpt>
      <trkpt lat="47.85218" lon="3.55998">
        <ele>89.9</ele>
        <time>2025-02-26T14:21:35Z</time>
      </trkpt>
      <trkpt lat="47.85222" lon="3.56015">
        <ele>90.5</ele>
        <time>2025-02-26T14:21:48Z</time>
      </trkpt>
      <trkpt lat="47.85224" lon="3.56022">
        <ele>90.9</ele>
        <time>2025-02-26T14:22:00Z</time>
      </trkpt>
      <trkpt lat="47.85228" lon="3.56033">
        <ele>90.9</ele>
        <time>2025-02-26T14:22:18Z</time>
      </trkpt>
      <trkpt lat="47.85232" lon="3.56042">
        <ele>90.7</ele>
        <time>2025-02-26T14:22:34Z</time>
      </trkpt>
      <trkpt lat="47.85238" lon="3.56053">
        <ele>90.8</ele>
        <time>2025-02-26T14:22:44Z</time>
      </trkpt>
      <trkpt lat="47.8525" lon="3.56071">
        <ele>90.9</ele>
        <time>2025-02-26T14:22:47Z</time>
      </trkpt>
      <trkpt lat="47.85271" lon="3.56098">
        <ele>91.5</ele>
        <time>2025-02-26T14:22:56Z</time>
      </trkpt>
      <trkpt lat="47.85285" lon="3.56116">
        <ele>91.2</ele>
        <time>2025-02-26T14:23:01Z</time>
      </trkpt>
      <trkpt lat="47.85301" lon="3.56137">
        <ele>90.8</ele>
        <time>2025-02-26T14:23:13Z</time>
      </trkpt>
      <trkpt lat="47.85313" lon="3.56152">
        <ele>90.8</ele>
        <time>2025-02-26T14:23:30Z</time>
      </trkpt>
      <trkpt lat="47.85321" lon="3.56164">
        <ele>91.4</ele>
        <time>2025-02-26T14:23:48Z</time>
      </trkpt>
      <trkpt lat="47.85327" lon="3.56169">
        <ele>91.9</ele>
        <time>2025-02-26T14:24:03Z</time>
      </trkpt>
      <trkpt lat="47.85327" lon="3.56174">
        <ele>91.5</ele>
        <time>2025-02-26T14:24:17Z</time>
      </trkpt>
      <trkpt lat="47.85332" lon="3.5618">
        <ele>91.4</ele>
        <time>2025-02-26T14:24:29Z</time>
      </trkpt>
      <trkpt lat="47.85339" lon="3.56188">
        <ele>91.1</ele>
        <time>2025-02-26T14:24:44Z</time>
      </trkpt>
      <trkpt lat="47.85342" lon="3.56191">
        <ele>91.2</ele>
        <time>2025-02-26T14:24:59Z</time>
      </trkpt>
      <trkpt lat="47.85352" lon="3.56219">
        <ele>89.3</ele>
        <time>2025-02-26T14:25:12Z</time>
      </trkpt>
      <trkpt lat="47.8536" lon="3.56248">
        <ele>89.9</ele>
        <time>2025-02-26T14:25:31Z</time>
      </trkpt>
      <trkpt lat="47.85363" lon="3.56264">
        <ele>90</ele>
        <time>2025-02-26T14:25:38Z</time>
      </trkpt>
      <trkpt lat="47.85365" lon="3.56279">
        <ele>90</ele>
        <time>2025-02-26T14:25:43Z</time>
      </trkpt>
      <trkpt lat="47.85366" lon="3.56313">
        <ele>89.2</ele>
        <time>2025-02-26T14:25:47Z</time>
      </trkpt>
      <trkpt lat="47.85366" lon="3.56317">
        <ele>89.2</ele>
        <time>2025-02-26T14:26:04Z</time>
      </trkpt>
      <trkpt lat="47.85365" lon="3.56335">
        <ele>89.2</ele>
        <time>2025-02-26T14:26:20Z</time>
      </trkpt>
      <trkpt lat="47.8536" lon="3.56371">
        <ele>89.9</ele>
        <time>2025-02-26T14:26:32Z</time>
      </trkpt>
      <trkpt lat="47.85353" lon="3.56406">
        <ele>89.7</ele>
        <time>2025-02-26T14:26:35Z</time>
      </trkpt>
      <trkpt lat="47.8535" lon="3.56423">
        <ele>89.6</ele>
        <time>2025-02-26T14:26:46Z</time>
      </trkpt>
      <trkpt lat="47.85347" lon="3.56436">
        <ele>89.5</ele>
        <time>2025-02-26T14:26:58Z</time>
      </trkpt>
      <trkpt lat="47.85342" lon="3.56455">
        <ele>89.6</ele>
        <time>2025-02-26T14:27:02Z</time>
      </trkpt>
      <trkpt lat="47.85332" lon="3.56487">
        <ele>90</ele>
        <time>2025-02-26T14:27:20Z</time>
      </trkpt>
      <trkpt lat="47.85331" lon="3.56491">
        <ele>89.9</ele>
        <time>2025-02-26T14:27:22Z</time>
      </trkpt>
      <trkpt lat="47.85326" lon="3.56503">
        <ele>89.7</ele>
        <time>2025-02-26T14:27:36Z</time>
      </trkpt>
      <trkpt lat="47.85315" lon="3.56525">
        <ele>89.4</ele>
        <time>2025-02-26T14:27:45Z</time>
      </trkpt>
      <trkpt lat="47.85303" lon="3.56547">
        <ele>89.6</ele>
        <time>2025-02-26T14:27:53Z</time>
      </trkpt>
      <trkpt lat="47.8529" lon="3.56566">
        <ele>89.7</ele>
        <time>2025-02-26T14:27:58Z</time>
      </trkpt>
      <trkpt lat="47.85276" lon="3.5659">
        <ele>89.9</ele>
        <time>2025-02-26T14:28:00Z</time>
      </trkpt>
      <trkpt lat="47.85261" lon="3.56614">
        <ele>89.5</ele>
        <time>2025-02-26T14:28:06Z</time>
      </trkpt>
      <trkpt lat="47.85246" lon="3.56638">
        <ele>89.8</ele>
        <time>2025-02-26T14:28:20Z</time>
      </trkpt>
      <trkpt lat="47.8524" lon="3.56648">
        <ele>89.6</ele>
        <time>2025-02-26T14:28:23Z</time>
      </trkpt>
      <trkpt lat="47.85233" lon="3.5666">
        <ele>89.4</ele>
        <time>2025-02-26T14:28:42Z</time>
      </trkpt>
      <trkpt lat="47.8522" lon="3.56682">
        <ele>89.5</ele>
        <time>2025-02-26T14:28:52Z</time>
      </trkpt>
      <trkpt lat="47.85211" lon="3.56696">
        <ele>89.6</ele>
        <time>2025-02-26T14:28:55Z</time>
      </trkpt>
      <trkpt lat="47.85206" lon="3.56708">
        <ele>89.4</ele>
        <time>2025-02-26T14:29:02Z</time>
      </trkpt>
      <trkpt lat="47.852" lon="3.56724">
        <ele>89.2</ele>
        <time>2025-02-26T14:29:20Z</time>
      </trkpt>
      <trkpt lat="47.85193" lon="3.56739">
        <ele>89.6</ele>
        <time>2025-02-26T14:29:35Z</time>
      </trkpt>
      <trkpt lat="47.85187" lon="3.56764">
        <ele>89.9</ele>
        <time>2025-02-26T14:29:41Z</time>
      </trkpt>
      <trkpt lat="47.85183" lon="3.56781">
        <ele>90</ele>
        <time>2025-02-26T14:29:46Z</time>
      </trkpt>
      <trkpt lat="47.85181" lon="3.56805">
        <ele>90</ele>
        <time>2025-02-26T14:30:05Z</time>
      </trkpt>
      <trkpt lat="47.8518" lon="3.56816">
        <ele>89.7</ele>
        <time>2025-02-26T14:30:15Z</time>
      </trkpt>
      <trkpt lat="47.85177" lon="3.56833">
        <ele>89.2</ele>
        <time>2025-02-26T14:30:18Z</time>
      </trkpt>
      <trkpt lat="47.85179" lon="3.56846">
        <ele>89.3</ele>
        <time>2025-02-26T14:30:22Z</time>
      </trkpt>
      <trkpt lat="47.85179" lon="3.56854">
        <ele>89.3</ele>
        <time>2025-02-26T14:30:30Z</time>
      </trkpt>
      <trkpt lat="47.8518" lon="3.56873">
        <ele>89.5</ele>
        <time>2025-02-26T14:30:47Z</time>
      </trkpt>
      <trkpt lat="47.85184" lon="3.56901">
        <ele>89.9</ele>
        <time>2025-02-26T14:30:57Z</time>
      </trkpt>
      <trkpt lat="47.85191" lon="3.56941">
        <ele>90.8</ele>
        <time>2025-02-26T14:31:17Z</time>
      </trkpt>
      <trkpt lat="47.852" lon="3.56988">
        <ele>91.2</ele>
        <time>2025-02-26T14:31:31Z</time>
      </trkpt>
      <trkpt lat="47.85209" lon="3.57033">
        <ele>91.5</ele>
        <time>2025-02-26T14:31:33Z</time>
      </trkpt>
      <trkpt lat="47.85217" lon="3.5707">
        <ele>91.8</ele>
        <time>2025-02-26T14:31:40Z</time>
      </trkpt>
      <trkpt lat="47.85223" lon="3.57092">
        <ele>91.7</ele>
        <time>2025-02-26T14:31:48Z</time>
      </trkpt>
      <trkpt lat="47.85227" lon="3.57097">
        <ele>91.7</ele>
        <time>2025-02-26T14:32:06Z</time>
      </trkpt>
      <trkpt lat="47.85229" lon="3.57126">
        <ele>91.5</ele>
        <time>2025-02-26T14:32:21Z</time>
      </trkpt>
      <trkpt lat="47.85231" lon="3.5715">
        <ele>91.6</ele>
        <time>2025-02-26T14:32:23Z</time>
      </trkpt>
      <trkpt lat="47.85234" lon="3.57185">
        <ele>91.8</ele>
        <time>2025-02-26T14:32:42Z</time>
      </trkpt>
      <trkpt lat="47.85234" lon="3.57205">
        <ele>91.8</ele>
        <time>2025-02-26T14:32:45Z</time>
      </trkpt>
      <trkpt lat="47.85233" lon="3.57215">
        <ele>91.8</ele>
        <time>2025-02-26T14:32:52Z</time>
      </trkpt>
      <trkpt lat="47.85232" lon="3.57235">
        <ele>91.7</ele>
        <time>2025-02-26T14:33:04Z</time>
      </trkpt>
      <trkpt lat="47.85229" lon="3.57249">
        <ele>91.5</ele>
        <time>2025-02-26T14:33:15Z</time>
      </trkpt>
      <trkpt lat="47.85224" lon="3.57279">
        <ele>92.1</ele>
        <time>2025-02-26T14:33:35Z</time>
      </trkpt>
      <trkpt lat="47.85219" lon="3.57308">
        <ele>91.9</ele>
        <time>2025-02-26T14:33:45Z</time>
      </trkpt>
      <trkpt lat="47.85215" lon="3.57331">
        <ele>91.8</ele>
        <time>2025-02-26T14:33:58Z</time>
      </trkpt>
      <trkpt lat="47.85212" lon="3.57347">
        <ele>91.5</ele>
        <time>2025-02-26T14:34:17Z</time>
      </trkpt>
      <trkpt lat="47.8521" lon="3.57359">
        <ele>91.2</ele>
        <time>2025-02-26T14:34:33Z</time>
      </trkpt>
      <trkpt lat="47.85207" lon="3.57368">
        <ele>91.1</ele>
        <time>2025-02-26T14:34:47Z</time>
      </trkpt>
      <trkpt lat="47.85203" lon="3.57382">
        <ele>91.1</ele>
        <time>2025-02-26T14:34:53Z</time>
      </trkpt>
      <trkpt lat="47.85197" lon="3.57402">
        <ele>91.1</ele>
        <time>2025-02-26T14:35:05Z</time>
      </trkpt>
      <trkpt lat="47.85194" lon="3.57411">
        <ele>91</ele>
        <time>2025-02-26T14:35:21Z</time>
      </trkpt>
      <trkpt lat="47.85191" lon="3.57421">
        <ele>91.1</ele>
        <time>2025-02-26T14:35:34Z</time>
      </trkpt>
      <trkpt lat="47.8519" lon="3.57428">
        <ele>91.3</ele>
        <time>2025-02-26T14:35:36Z</time>
      </trkpt>
      <trkpt lat="47.85187" lon="3.57443">
        <ele>91.7</ele>
        <time>2025-02-26T14:35:55Z</time>
      </trkpt>
      <trkpt lat="47.85186" lon="3.57449">
        <ele>91.7</ele>
        <time>2025-02-26T14:35:59Z</time>
      </trkpt>
      <trkpt lat="47.85183" lon="3.57472">
        <ele>91.6</ele>
        <time>2025-02-26T14:36:15Z</time>
      </trkpt>
      <trkpt lat="47.85182" lon="3.57483">
        <ele>91.7</ele>
        <time>2025-02-26T14:36:29Z</time>
      </trkpt>
      <trkpt lat="47.8518" lon="3.57493">
        <ele>91.9</ele>
        <time>2025-02-26T14:36:47Z</time>
      </trkpt>
      <trkpt lat="47.85176" lon="3.57512">
        <ele>91.7</ele>
        <time>2025-02-26T14:37:05Z</time>
      </trkpt>
      <trkpt lat="47.85175" lon="3.5752">
        <ele>91.6</ele>
        <time>2025-02-26T14:37:10Z</time>
      </trkpt>
      <trkpt lat="47.85173" lon="3.57527">
        <ele>91.5</ele>
        <time>2025-02-26T14:37:28Z</time>
      </trkpt>
      <trkpt lat="47.8517" lon="3.57541">
        <ele>91.7</ele>
        <time>2025-02-26T14:37:32Z</time>
      </trkpt>
      <trkpt lat="47.85167" lon="3.57552">
        <ele>91.9</ele>
        <time>2025-02-26T14:37:44Z</time>
      </trkpt>
      <trkpt lat="47.85159" lon="3.57576">
        <ele>92.3</ele>
        <time>2025-02-26T14:38:02Z</time>
      </trkpt>
      <trkpt lat="47.85152" lon="3.57599">
        <ele>92</ele>
        <time>2025-02-26T14:38:04Z</time>
      </trkpt>
      <trkpt lat="47.85151" lon="3.57607">
        <ele>91.9</ele>
        <time>2025-02-26T14:38:20Z</time>
      </trkpt>
      <trkpt lat="47.85151" lon="3.57611">
        <ele>91.9</ele>
        <time>2025-02-26T14:38:24Z</time>
      </trkpt>
      <trkpt lat="47.8515" lon="3.57619">
        <ele>91.8</ele>
        <time>2025-02-26T14:38:28Z</time>
      </trkpt>
      <trkpt lat="47.8515" lon="3.57621">
        <ele>91.8</ele>
        <time>2025-02-26T14:38:48Z</time>
      </trkpt>
      <trkpt lat="47.8515" lon="3.57624">
        <ele>91.8</ele>
        <time>2025-02-26T14:38:53Z</time>
      </trkpt>
      <trkpt lat="47.85149" lon="3.57626">
        <ele>91.7</ele>
        <time>2025-02-26T14:39:08Z</time>
      </trkpt>
      <trkpt lat="47.85149" lon="3.57628">
        <ele>91.8</ele>
        <time>2025-02-26T14:39:21Z</time>
      </trkpt>
      <trkpt lat="47.85151" lon="3.57636">
        <ele>91.9</ele>
        <time>2025-02-26T14:39:36Z</time>
      </trkpt>
      <trkpt lat="47.85151" lon="3.57643">
        <ele>92</ele>
        <time>2025-02-26T14:39:38Z</time>
      </trkpt>
      <trkpt lat="47.85152" lon="3.57656">
        <ele>92.3</ele>
        <time>2025-02-26T14:39:42Z</time>
      </trkpt>
      <trkpt lat="47.85154" lon="3.57668">
        <ele>92.6</ele>
        <time>2025-02-26T14:39:44Z</time>
      </trkpt>
      <trkpt lat="47.85154" lon="3.57679">
        <ele>92.7</ele>
        <time>2025-02-26T14:39:47Z</time>
      </trkpt>
      <trkpt lat="47.85155" lon="3.57697">
        <ele>93.1</ele>
        <time>2025-02-26T14:39:59Z</time>
      </trkpt>
      <trkpt lat="47.85155" lon="3.57707">
        <ele>93.5</ele>
        <time>2025-02-26T14:40:01Z</time>
      </trkpt>
      <trkpt lat="47.85154" lon="3.57722">
        <ele>94</ele>
        <time>2025-02-26T14:40:11Z</time>
      </trkpt>
      <trkpt lat="47.85153" lon="3.57735">
        <ele>94</ele>
        <time>2025-02-26T14:40:26Z</time>
      </trkpt>
      <trkpt lat="47.85148" lon="3.5774">
        <ele>94</ele>
        <time>2025-02-26T14:40:45Z</time>
      </trkpt>
      <trkpt lat="47.85135" lon="3.57761">
        <ele>94</ele>
        <time>2025-02-26T14:40:57Z</time>
      </trkpt>
      <trkpt lat="47.85135" lon="3.57771">
        <ele>94</ele>
        <time>2025-02-26T14:40:59Z</time>
      </trkpt>
      <trkpt lat="47.8508" lon="3.57795">
        <ele>94.6</ele>
        <time>2025-02-26T14:41:01Z</time>
      </trkpt>
      <trkpt lat="47.85051" lon="3.57804">
        <ele>94.8</ele>
        <time>2025-02-26T14:41:17Z</time>
      </trkpt>
      <trkpt lat="47.85028" lon="3.57812">
        <ele>94.2</ele>
        <time>2025-02-26T14:41:20Z</time>
      </trkpt>
      <trkpt lat="47.85025" lon="3.57817">
        <ele>94.4</ele>
        <time>2025-02-26T14:41:27Z</time>
      </trkpt>
      <trkpt lat="47.85023" lon="3.57832">
        <ele>95</ele>
        <time>2025-02-26T14:41:30Z</time>
      </trkpt>
      <trkpt lat="47.85022" lon="3.57855">
        <ele>95</ele>
        <time>2025-02-26T14:41:49Z</time>
      </trkpt>
      <trkpt lat="47.85022" lon="3.57869">
        <ele>95.4</ele>
        <time>2025-02-26T14:41:53Z</time>
      </trkpt>
      <trkpt lat="47.84989" lon="3.57867">
        <ele>95.3</ele>
        <time>2025-02-26T14:41:57Z</time>
      </trkpt>
      <trkpt lat="47.8498" lon="3.57865">
        <ele>95.2</ele>
        <time>2025-02-26T14:42:17Z</time>
      </trkpt>
      <trkpt lat="47.84971" lon="3.57867">
        <ele>95.2</ele>
        <time>2025-02-26T14:42:28Z</time>
      </trkpt>
      <trkpt lat="47.84946" lon="3.57868">
        <ele>94.3</ele>
        <time>2025-02-26T14:42:46Z</time>
      </trkpt>
      <trkpt lat="47.84919" lon="3.57871">
        <ele>94.4</ele>
        <time>2025-02-26T14:43:02Z</time>
      </trkpt>
      <trkpt lat="47.84906" lon="3.57874">
        <ele>94</ele>
        <time>2025-02-26T14:43:17Z</time>
      </trkpt>
      <trkpt lat="47.84893" lon="3.57876">
        <ele>93.7</ele>
        <time>2025-02-26T14:43:34Z</time>
      </trkpt>
      <trkpt lat="47.84872" lon="3.57881">
        <ele>93.6</ele>
        <time>2025-02-26T14:43:53Z</time>
      </trkpt>
      <trkpt lat="47.84799" lon="3.57912">
        <ele>94.3</ele>
        <time>2025-02-26T14:44:00Z</time>
      </trkpt>
    </trkseg>
  </trk>
</gpx>